Observation data for Romero 11SSW on 01/19/2019      Previous  Date  Next       Current Mesonet Observations  Soil Data  Daily Summary Page  Observations in Plain Language
KBR1 190600Z 00015KT 00/M03 A3013 RMK A01 T00031030  RH  078%=      5-min Rain = 0
KBR1 190601Z 00013KT 00/M03 A3013 RMK A01 T00031030  RH  078%=      5-min Rain = 0
KBR1 190602Z 36015KT 00/M03 A3013 RMK A01 T00031030  RH  078%=      5-min Rain = 0
KBR1 190603Z 36015KT 00/M03 A3013 RMK A01 T00031030  RH  078%=      5-min Rain = 0
KBR1 190604Z 00014KT 00/M03 A3013 RMK A01 T00031030  RH  078%=      5-min Rain = 0
KBR1 190605Z 00013KT 00/M03 A3013 RMK A01 T00031030  RH  079%=      5-min Rain = 0
KBR1 190606Z 00013KT 00/M03 A3013 RMK A01 T00031030  RH  079%=      5-min Rain = 0
KBR1 190607Z 00013KT 00/M03 A3013 RMK A01 T00031029  RH  079%=      5-min Rain = 0
KBR1 190608Z 00013KT 00/M03 A3013 RMK A01 T00021029  RH  079%=      5-min Rain = 0
KBR1 190609Z 01012KT 00/M03 A3014 RMK A01 T00021029  RH  080%=      5-min Rain = 0
KBR1 190610Z 00011KT 00/M03 A3014 RMK A01 T00011029  RH  080%=      5-min Rain = 0
KBR1 190611Z 00012KT 00/M03 A3014 RMK A01 T00011029  RH  080%=      5-min Rain = 0
KBR1 190612Z 36013G19KT 00/M03 A3014 RMK A01 T00011030  RH  080%=      5-min Rain = 0
KBR1 190613Z 00013KT 00/M03 A3014 RMK A01 T00021030  RH  079%=      5-min Rain = 0
KBR1 190614Z 00013KT 00/M03 A3014 RMK A01 T00021030  RH  079%=      5-min Rain = 0
KBR1 190615Z 00011KT 00/M03 A3014 RMK A01 T00021030  RH  079%=      5-min Rain = 0
KBR1 190616Z 00012KT 00/M03 A3014 RMK A01 T00021030  RH  079%=      5-min Rain = 0
KBR1 190617Z 00012KT 00/M03 A3014 RMK A01 T00011030  RH  080%=      5-min Rain = 0
KBR1 190618Z 00012KT 00/M03 A3014 RMK A01 T00021030  RH  080%=      5-min Rain = 0
KBR1 190619Z 00012KT 00/M03 A3014 RMK A01 T00011030  RH  079%=      5-min Rain = 0
KBR1 190620Z 36011KT 00/M03 A3014 RMK A01 T00011030  RH  079%=      5-min Rain = 0
KBR1 190621Z 36013KT 00/M03 A3014 RMK A01 T00011030  RH  079%=      5-min Rain = 0
KBR1 190622Z 00011KT 00/M03 A3014 RMK A01 T00011031  RH  079%=      5-min Rain = 0
KBR1 190623Z 00011KT 00/M03 A3014 RMK A01 T00011030  RH  079%=      5-min Rain = 0
KBR1 190624Z 00010KT 00/M03 A3014 RMK A01 T00011030  RH  080%=      5-min Rain = 0
KBR1 190625Z 00010KT 00/M03 A3014 RMK A01 T00011030  RH  080%=      5-min Rain = 0
KBR1 190626Z 36010KT 00/03 A3015 RMK A01 T00000-30  RH  080%=      5-min Rain = 0
KBR1 190627Z 35011KT 00/03 A3015 RMK A01 T00000-30  RH  080%=      5-min Rain = 0
KBR1 190628Z 36010KT 00/03 A3015 RMK A01 T00000-30  RH  080%=      5-min Rain = 0
KBR1 190629Z 35009KT 00/03 A3015 RMK A01 T00000-30  RH  080%=      5-min Rain = 0
KBR1 190630Z 36009KT 00/03 A3015 RMK A01 T00000-30  RH  080%=      5-min Rain = 0
KBR1 190631Z 35009KT 00/03 A3015 RMK A01 T00-00-30  RH  080%=      5-min Rain = 0
KBR1 190632Z 35009KT 00/03 A3015 RMK A01 T00000-30  RH  080%=      5-min Rain = 0
KBR1 190633Z 34008KT 00/03 A3016 RMK A01 T00000-30  RH  080%=      5-min Rain = 0
KBR1 190634Z 34008KT 00/03 A3016 RMK A01 T00000-29  RH  080%=      5-min Rain = 0
KBR1 190635Z 34007KT 00/03 A3016 RMK A01 T00-00-29  RH  081%=      5-min Rain = 0
KBR1 190636Z 34008KT M00/M03 A3016 RMK A01 T10011030  RH  081%=      5-min Rain = 0
KBR1 190637Z 34007KT M00/M03 A3016 RMK A01 T10011029  RH  081%=      5-min Rain = 0
KBR1 190638Z 33007KT M00/M03 A3016 RMK A01 T10011029  RH  081%=      5-min Rain = 0
KBR1 190639Z 33006KT M00/M03 A3016 RMK A01 T10011030  RH  081%=      5-min Rain = 0
KBR1 190640Z 33007KT M00/M03 A3016 RMK A01 T10021030  RH  081%=      5-min Rain = 0
KBR1 190641Z 33007KT M00/M03 A3016 RMK A01 T10021030  RH  081%=      5-min Rain = 0
KBR1 190642Z 33006KT M00/M03 A3016 RMK A01 T10021030  RH  081%=      5-min Rain = 0
KBR1 190643Z 33008KT M00/M03 A3016 RMK A01 T10021030  RH  081%=      5-min Rain = 0
KBR1 190644Z 33006KT M00/M03 A3016 RMK A01 T10011030  RH  081%=      5-min Rain = 0
KBR1 190645Z 33005KT M00/M03 A3016 RMK A01 T10011030  RH  081%=      5-min Rain = 0
KBR1 190646Z 33005KT M00/M03 A3016 RMK A01 T10011030  RH  081%=      5-min Rain = 0
KBR1 190647Z 33006KT M00/M03 A3016 RMK A01 T10021030  RH  081%=      5-min Rain = 0
KBR1 190648Z 33005KT M00/M03 A3016 RMK A01 T10031031  RH  082%=      5-min Rain = 0
KBR1 190649Z 33005KT M00/M03 A3016 RMK A01 T10031031  RH  082%=      5-min Rain = 0
KBR1 190650Z 33005KT M00/M03 A3016 RMK A01 T10031030  RH  082%=      5-min Rain = 0
KBR1 190651Z 33005KT M00/M03 A3016 RMK A01 T10031030  RH  082%=      5-min Rain = 0
KBR1 190652Z 33005KT M00/M03 A3016 RMK A01 T10031030  RH  082%=      5-min Rain = 0
KBR1 190653Z 33004KT M00/M03 A3016 RMK A01 T10031031  RH  082%=      5-min Rain = 0
KBR1 190654Z 33004KT M00/M03 A3016 RMK A01 T10041031  RH  082%=      5-min Rain = 0
KBR1 190655Z 33005KT M00/M03 A3016 RMK A01 T10041031  RH  083%=      5-min Rain = 0
KBR1 190656Z 33005KT M01/M03 A3016 RMK A01 T10051031  RH  083%=      5-min Rain = 0
KBR1 190657Z 33005KT M01/M03 A3016 RMK A01 T10051031  RH  083%=      5-min Rain = 0
KBR1 190658Z 33004KT M01/M03 A3016 RMK A01 T10051031  RH  083%=      5-min Rain = 0
KBR1 190659Z 33004KT M01/M03 A3016 RMK A01 T10061031  RH  083%=      5-min Rain = 0
KBR1 190700Z 33004KT M01/M03 A3016 RMK A01 T10061031  RH  083%=      5-min Rain = 0
KBR1 190701Z 33004KT M01/M03 A3016 RMK A01 T10061031  RH  083%=      5-min Rain = 0
KBR1 190702Z 33004KT M01/M03 A3016 RMK A01 T10061031  RH  083%=      5-min Rain = 0
KBR1 190703Z 32004KT M01/M03 A3016 RMK A01 T10061032  RH  083%=      5-min Rain = 0
KBR1 190704Z 32004KT M01/M03 A3016 RMK A01 T10061032  RH  083%=      5-min Rain = 0
KBR1 190705Z 32004KT M01/M03 A3016 RMK A01 T10061032  RH  082%=      5-min Rain = 0
KBR1 190706Z 33004KT M01/M03 A3016 RMK A01 T10061032  RH  082%=      5-min Rain = 0
KBR1 190707Z 32004KT M01/M03 A3016 RMK A01 T10061032  RH  082%=      5-min Rain = 0
KBR1 190708Z 32003KT M01/M03 A3016 RMK A01 T10071033  RH  082%=      5-min Rain = 0
KBR1 190709Z 31004KT M01/M03 A3016 RMK A01 T10071033  RH  083%=      5-min Rain = 0
KBR1 190710Z 31004KT M01/M03 A3016 RMK A01 T10071032  RH  083%=      5-min Rain = 0
KBR1 190711Z 31004KT M01/M03 A3016 RMK A01 T10071032  RH  083%=      5-min Rain = 0
KBR1 190712Z 31004KT M01/M03 A3016 RMK A01 T10071033  RH  083%=      5-min Rain = 0
KBR1 190713Z 30004KT M01/M03 A3016 RMK A01 T10081033  RH  083%=      5-min Rain = 0
KBR1 190714Z 30004KT M01/M03 A3016 RMK A01 T10091034  RH  083%=      5-min Rain = 0
KBR1 190715Z 31004KT M01/M03 A3017 RMK A01 T10101034  RH  084%=      5-min Rain = 0
KBR1 190716Z 30003KT M01/M03 A3017 RMK A01 T10111034  RH  084%=      5-min Rain = 0
KBR1 190717Z 30004KT M01/M03 A3017 RMK A01 T10111034  RH  084%=      5-min Rain = 0
KBR1 190718Z 30004KT M01/M03 A3017 RMK A01 T10111034  RH  084%=      5-min Rain = 0
KBR1 190719Z 29004KT M01/M03 A3017 RMK A01 T10111034  RH  085%=      5-min Rain = 0
KBR1 190720Z 29005KT M01/M03 A3017 RMK A01 T10111033  RH  085%=      5-min Rain = 0
KBR1 190721Z 29004KT M01/M03 A3017 RMK A01 T10111034  RH  084%=      5-min Rain = 0
KBR1 190722Z 29004KT M01/M03 A3017 RMK A01 T10101034  RH  084%=      5-min Rain = 0
KBR1 190723Z 28004KT M01/M03 A3016 RMK A01 T10111034  RH  084%=      5-min Rain = 0
KBR1 190724Z 28004KT M01/M04 A3016 RMK A01 T10121035  RH  084%=      5-min Rain = 0
KBR1 190725Z 29005KT M01/M04 A3017 RMK A01 T10121035  RH  085%=      5-min Rain = 0
KBR1 190726Z 29005KT M01/M04 A3017 RMK A01 T10131036  RH  085%=      5-min Rain = 0
KBR1 190727Z 29004KT M01/M04 A3017 RMK A01 T10131036  RH  085%=      5-min Rain = 0
KBR1 190728Z 29004KT M01/M04 A3017 RMK A01 T10121035  RH  085%=      5-min Rain = 0
KBR1 190729Z 29005KT M01/M03 A3017 RMK A01 T10111034  RH  084%=      5-min Rain = 0
KBR1 190730Z 28005KT M01/M03 A3017 RMK A01 T10101034  RH  084%=      5-min Rain = 0
KBR1 190731Z 28005KT M01/M04 A3017 RMK A01 T10101035  RH  083%=      5-min Rain = 0
KBR1 190732Z 28004KT M01/M04 A3017 RMK A01 T10101035  RH  083%=      5-min Rain = 0
KBR1 190733Z 28005KT M01/M04 A3017 RMK A01 T10111036  RH  083%=      5-min Rain = 0
KBR1 190734Z 28005KT M01/M04 A3017 RMK A01 T10131037  RH  083%=      5-min Rain = 0
KBR1 190735Z 28006KT M01/M04 A3017 RMK A01 T10131037  RH  084%=      5-min Rain = 0
KBR1 190736Z 28005KT M01/M04 A3017 RMK A01 T10141037  RH  084%=      5-min Rain = 0
KBR1 190737Z 28005KT M01/M04 A3017 RMK A01 T10141037  RH  085%=      5-min Rain = 0
KBR1 190738Z 28005KT M02/M04 A3017 RMK A01 T10151037  RH  085%=      5-min Rain = 0
KBR1 190739Z 27005KT M02/M04 A3017 RMK A01 T10151037  RH  085%=      5-min Rain = 0
KBR1 190740Z 27005KT M02/M04 A3017 RMK A01 T10151037  RH  085%=      5-min Rain = 0
KBR1 190741Z 28005KT M02/M04 A3017 RMK A01 T10161037  RH  085%=      5-min Rain = 0
KBR1 190742Z 28005KT M02/M04 A3017 RMK A01 T10161037  RH  085%=      5-min Rain = 0
KBR1 190743Z 28005KT M02/M04 A3017 RMK A01 T10151037  RH  085%=      5-min Rain = 0
KBR1 190744Z 28005KT M02/M04 A3017 RMK A01 T10151037  RH  085%=      5-min Rain = 0
KBR1 190745Z 28005KT M02/M04 A3017 RMK A01 T10151037  RH  085%=      5-min Rain = 0
KBR1 190746Z 28005KT M02/M04 A3017 RMK A01 T10151037  RH  085%=      5-min Rain = 0
KBR1 190747Z 27005KT M02/M04 A3017 RMK A01 T10151037  RH  085%=      5-min Rain = 0
KBR1 190748Z 27005KT M02/M04 A3017 RMK A01 T10151037  RH  085%=      5-min Rain = 0
KBR1 190749Z 27005KT M02/M04 A3017 RMK A01 T10161038  RH  085%=      5-min Rain = 0
KBR1 190750Z 27005KT M02/M04 A3017 RMK A01 T10171038  RH  085%=      5-min Rain = 0
KBR1 190751Z 27005KT M02/M04 A3017 RMK A01 T10171038  RH  085%=      5-min Rain = 0
KBR1 190752Z 27005KT M02/M04 A3017 RMK A01 T10181039  RH  086%=      5-min Rain = 0
KBR1 190753Z 26005KT M02/M04 A3017 RMK A01 T10181039  RH  086%=      5-min Rain = 0
KBR1 190754Z 26005KT M02/M04 A3017 RMK A01 T10191038  RH  087%=      5-min Rain = 0
KBR1 190755Z 26006KT M02/M04 A3017 RMK A01 T10181037  RH  087%=      5-min Rain = 0
KBR1 190756Z 26006KT M02/M04 A3017 RMK A01 T10191037  RH  087%=      5-min Rain = 0
KBR1 190757Z 26006KT M02/M04 A3017 RMK A01 T10191037  RH  087%=      5-min Rain = 0
KBR1 190758Z 26006KT M02/M04 A3017 RMK A01 T10191037  RH  087%=      5-min Rain = 0
KBR1 190759Z 26006KT M02/M04 A3017 RMK A01 T10181037  RH  087%=      5-min Rain = 0
KBR1 190800Z 27005KT M02/M04 A3017 RMK A01 T10181037  RH  087%=      5-min Rain = 0
KBR1 190801Z 27004KT M02/M04 A3017 RMK A01 T10181037  RH  087%=      5-min Rain = 0
KBR1 190802Z 27005KT M02/M04 A3017 RMK A01 T10181038  RH  086%=      5-min Rain = 0
KBR1 190803Z 28005KT M02/M04 A3017 RMK A01 T10181038  RH  086%=      5-min Rain = 0
KBR1 190804Z 28005KT M02/M04 A3017 RMK A01 T10181038  RH  086%=      5-min Rain = 0
KBR1 190805Z 29005KT M02/M04 A3017 RMK A01 T10191039  RH  086%=      5-min Rain = 0
KBR1 190806Z 29006KT M02/M04 A3017 RMK A01 T10191039  RH  086%=      5-min Rain = 0
KBR1 190807Z 29005KT M02/M04 A3017 RMK A01 T10181038  RH  086%=      5-min Rain = 0
KBR1 190808Z 29005KT M02/M04 A3017 RMK A01 T10171037  RH  086%=      5-min Rain = 0
KBR1 190809Z 30006KT M02/M04 A3017 RMK A01 T10161037  RH  086%=      5-min Rain = 0
KBR1 190810Z 30006KT M02/M04 A3017 RMK A01 T10161037  RH  086%=      5-min Rain = 0
KBR1 190811Z 30006KT M02/M04 A3017 RMK A01 T10151037  RH  085%=      5-min Rain = 0
KBR1 190812Z 30006KT M02/M04 A3017 RMK A01 T10161037  RH  085%=      5-min Rain = 0
KBR1 190813Z 30007KT M02/M04 A3017 RMK A01 T10161038  RH  085%=      5-min Rain = 0
KBR1 190814Z 30007KT M02/M04 A3017 RMK A01 T10171038  RH  085%=      5-min Rain = 0
KBR1 190815Z 30007KT M02/M04 A3017 RMK A01 T10171038  RH  086%=      5-min Rain = 0
KBR1 190816Z 30007KT M02/M04 A3017 RMK A01 T10171037  RH  086%=      5-min Rain = 0
KBR1 190817Z 30007KT M02/M04 A3017 RMK A01 T10171038  RH  086%=      5-min Rain = 0
KBR1 190818Z 30007KT M02/M04 A3017 RMK A01 T10171038  RH  086%=      5-min Rain = 0
KBR1 190819Z 30007KT M02/M04 A3017 RMK A01 T10171038  RH  086%=      5-min Rain = 0
KBR1 190820Z 30007KT M02/M04 A3017 RMK A01 T10171037  RH  086%=      5-min Rain = 0
KBR1 190821Z 30006KT M02/M04 A3017 RMK A01 T10171037  RH  086%=      5-min Rain = 0
KBR1 190822Z 30006KT M02/M04 A3017 RMK A01 T10171037  RH  086%=      5-min Rain = 0
KBR1 190823Z 31006KT M02/M04 A3017 RMK A01 T10171037  RH  086%=      5-min Rain = 0
KBR1 190824Z 31006KT M02/M04 A3017 RMK A01 T10171037  RH  086%=      5-min Rain = 0
KBR1 190825Z 31006KT M02/M04 A3017 RMK A01 T10161037  RH  086%=      5-min Rain = 0
KBR1 190826Z 31006KT M02/M04 A3017 RMK A01 T10161037  RH  086%=      5-min Rain = 0
KBR1 190827Z 31006KT M02/M04 A3017 RMK A01 T10161037  RH  086%=      5-min Rain = 0
KBR1 190828Z 31006KT M02/M04 A3017 RMK A01 T10161037  RH  086%=      5-min Rain = 0
KBR1 190829Z 31006KT M02/M04 A3017 RMK A01 T10161037  RH  086%=      5-min Rain = 0
KBR1 190830Z 30006KT M02/M04 A3017 RMK A01 T10171037  RH  086%=      5-min Rain = 0
KBR1 190831Z 30007KT M02/M04 A3017 RMK A01 T10181038  RH  086%=      5-min Rain = 0
KBR1 190832Z 30007KT M02/M04 A3017 RMK A01 T10181038  RH  086%=      5-min Rain = 0
KBR1 190833Z 30007KT M02/M04 A3017 RMK A01 T10191038  RH  086%=      5-min Rain = 0
KBR1 190834Z 30007KT M02/M04 A3017 RMK A01 T10191038  RH  087%=      5-min Rain = 0
KBR1 190835Z 30007KT M02/M04 A3017 RMK A01 T10191038  RH  087%=      5-min Rain = 0
KBR1 190836Z 30006KT M02/M04 A3018 RMK A01 T10191038  RH  087%=      5-min Rain = 0
KBR1 190837Z 30006KT M02/M04 A3018 RMK A01 T10181037  RH  087%=      5-min Rain = 0
KBR1 190838Z 30006KT M02/M04 A3018 RMK A01 T10181037  RH  087%=      5-min Rain = 0
KBR1 190839Z 30007KT M02/M04 A3018 RMK A01 T10181037  RH  087%=      5-min Rain = 0
KBR1 190840Z 30007KT M02/M04 A3018 RMK A01 T10181037  RH  087%=      5-min Rain = 0
KBR1 190841Z 30006KT M02/M04 A3018 RMK A01 T10171037  RH  086%=      5-min Rain = 0
KBR1 190842Z 29007KT M02/M04 A3018 RMK A01 T10171037  RH  086%=      5-min Rain = 0
KBR1 190843Z 29007KT M02/M04 A3018 RMK A01 T10171037  RH  086%=      5-min Rain = 0
KBR1 190844Z 29007KT M02/M04 A3018 RMK A01 T10171037  RH  086%=      5-min Rain = 0
KBR1 190845Z 29007KT M02/M04 A3018 RMK A01 T10171037  RH  087%=      5-min Rain = 0
KBR1 190846Z 29007KT M02/M04 A3018 RMK A01 T10161036  RH  087%=      5-min Rain = 0
KBR1 190847Z 30007KT M02/M04 A3018 RMK A01 T10161036  RH  086%=      5-min Rain = 0
KBR1 190848Z 30007KT M02/M04 A3018 RMK A01 T10151035  RH  086%=      5-min Rain = 0
KBR1 190849Z 30007KT M01/M04 A3018 RMK A01 T10141035  RH  086%=      5-min Rain = 0
KBR1 190850Z 30007KT M01/M04 A3018 RMK A01 T10141035  RH  085%=      5-min Rain = 0
KBR1 190851Z 30007KT M01/M04 A3018 RMK A01 T10131035  RH  085%=      5-min Rain = 0
KBR1 190852Z 30007KT M01/M04 A3018 RMK A01 T10131035  RH  085%=      5-min Rain = 0
KBR1 190853Z 30008KT M01/M04 A3018 RMK A01 T10121035  RH  085%=      5-min Rain = 0
KBR1 190854Z 30007KT M01/M04 A3018 RMK A01 T10121035  RH  084%=      5-min Rain = 0
KBR1 190855Z 30007KT M01/M04 A3018 RMK A01 T10121035  RH  084%=      5-min Rain = 0
KBR1 190856Z 31007KT M01/M04 A3018 RMK A01 T10121035  RH  084%=      5-min Rain = 0
KBR1 190857Z 31007KT M01/M04 A3018 RMK A01 T10121035  RH  084%=      5-min Rain = 0
KBR1 190858Z 31007KT M01/M04 A3018 RMK A01 T10121035  RH  085%=      5-min Rain = 0
KBR1 190859Z 31007KT M01/M04 A3018 RMK A01 T10121035  RH  085%=      5-min Rain = 0
KBR1 190900Z 31008KT M01/M04 A3018 RMK A01 T10121035  RH  085%=      5-min Rain = 0
KBR1 190901Z 31008KT M01/M04 A3018 RMK A01 T10121035  RH  085%=      5-min Rain = 0
KBR1 190902Z 31008KT M01/M03 A3018 RMK A01 T10111034  RH  085%=      5-min Rain = 0
KBR1 190903Z 31009KT M01/M03 A3018 RMK A01 T10111034  RH  084%=      5-min Rain = 0
KBR1 190904Z 31009KT M01/M03 A3018 RMK A01 T10101033  RH  084%=      5-min Rain = 0
KBR1 190905Z 31009KT M01/M03 A3018 RMK A01 T10091033  RH  084%=      5-min Rain = 0
KBR1 190906Z 31009KT M01/M03 A3018 RMK A01 T10081033  RH  084%=      5-min Rain = 0
KBR1 190907Z 31009KT M01/M03 A3018 RMK A01 T10071033  RH  083%=      5-min Rain = 0
KBR1 190908Z 31009KT M01/M03 A3018 RMK A01 T10071033  RH  083%=      5-min Rain = 0
KBR1 190909Z 31009KT M01/M03 A3018 RMK A01 T10071033  RH  083%=      5-min Rain = 0
KBR1 190910Z 31009KT M01/M03 A3018 RMK A01 T10071033  RH  083%=      5-min Rain = 0
KBR1 190911Z 31009KT M01/M03 A3018 RMK A01 T10061032  RH  082%=      5-min Rain = 0
KBR1 190912Z 31009KT M01/M03 A3018 RMK A01 T10061032  RH  082%=      5-min Rain = 0
KBR1 190913Z 31009KT M01/M03 A3018 RMK A01 T10061032  RH  082%=      5-min Rain = 0
KBR1 190914Z 31009KT M01/M03 A3018 RMK A01 T10051032  RH  082%=      5-min Rain = 0
KBR1 190915Z 32009KT M00/M03 A3018 RMK A01 T10041032  RH  081%=      5-min Rain = 0
KBR1 190916Z 32008KT M00/M03 A3018 RMK A01 T10031032  RH  081%=      5-min Rain = 0
KBR1 190917Z 31008KT M00/M03 A3018 RMK A01 T10031032  RH  081%=      5-min Rain = 0
KBR1 190918Z 31008KT M00/M03 A3018 RMK A01 T10021032  RH  080%=      5-min Rain = 0
KBR1 190919Z 31008KT M00/M03 A3019 RMK A01 T10021032  RH  080%=      5-min Rain = 0
KBR1 190920Z 31008KT M00/M03 A3019 RMK A01 T10021032  RH  080%=      5-min Rain = 0
KBR1 190921Z 31008KT M00/M03 A3019 RMK A01 T10031032  RH  081%=      5-min Rain = 0
KBR1 190922Z 31008KT M00/M03 A3019 RMK A01 T10031032  RH  081%=      5-min Rain = 0
KBR1 190923Z 31008KT M00/M03 A3019 RMK A01 T10041033  RH  081%=      5-min Rain = 0
KBR1 190924Z 31008KT M00/M03 A3019 RMK A01 T10031033  RH  081%=      5-min Rain = 0
KBR1 190925Z 31007KT M00/M03 A3019 RMK A01 T10031032  RH  081%=      5-min Rain = 0
KBR1 190926Z 31007KT M00/M03 A3019 RMK A01 T10021032  RH  080%=      5-min Rain = 0
KBR1 190927Z 32008KT M00/M03 A3019 RMK A01 T10031032  RH  080%=      5-min Rain = 0
KBR1 190928Z 32007KT M00/M03 A3019 RMK A01 T10031032  RH  080%=      5-min Rain = 0
KBR1 190929Z 32007KT M00/M03 A3019 RMK A01 T10031033  RH  080%=      5-min Rain = 0
KBR1 190930Z 31008KT M00/M03 A3019 RMK A01 T10031032  RH  080%=      5-min Rain = 0
KBR1 190931Z 31007KT M00/M03 A3019 RMK A01 T10031033  RH  080%=      5-min Rain = 0
KBR1 190932Z 31007KT M00/M03 A3019 RMK A01 T10031033  RH  080%=      5-min Rain = 0
KBR1 190933Z 31007KT M00/M03 A3019 RMK A01 T10031033  RH  080%=      5-min Rain = 0
KBR1 190934Z 31007KT M00/M03 A3019 RMK A01 T10031033  RH  080%=      5-min Rain = 0
KBR1 190935Z 31007KT M00/M03 A3019 RMK A01 T10041033  RH  080%=      5-min Rain = 0
KBR1 190936Z 31008KT M00/M03 A3019 RMK A01 T10041033  RH  080%=      5-min Rain = 0
KBR1 190937Z 31008KT M00/M03 A3019 RMK A01 T10041034  RH  080%=      5-min Rain = 0
KBR1 190938Z 31007KT M00/M03 A3019 RMK A01 T10041034  RH  080%=      5-min Rain = 0
KBR1 190939Z 30008KT M00/M03 A3019 RMK A01 T10041034  RH  081%=      5-min Rain = 0
KBR1 190940Z 31008KT M00/M03 A3019 RMK A01 T10041034  RH  081%=      5-min Rain = 0
KBR1 190941Z 31009KT M00/M03 A3019 RMK A01 T10041034  RH  081%=      5-min Rain = 0
KBR1 190942Z 31008KT M00/M03 A3019 RMK A01 T10041034  RH  081%=      5-min Rain = 0
KBR1 190943Z 31008KT M01/M03 A3019 RMK A01 T10051034  RH  081%=      5-min Rain = 0
KBR1 190944Z 31008KT M00/M03 A3019 RMK A01 T10041034  RH  080%=      5-min Rain = 0
KBR1 190945Z 31008KT M00/M03 A302 RMK A01 T10041034  RH  080%=      5-min Rain = 0
KBR1 190946Z 31008KT M00/M03 A302 RMK A01 T10041034  RH  080%=      5-min Rain = 0
KBR1 190947Z 31009KT M00/M03 A302 RMK A01 T10041034  RH  080%=      5-min Rain = 0
KBR1 190948Z 31008KT M00/M03 A302 RMK A01 T10041034  RH  080%=      5-min Rain = 0
KBR1 190949Z 31008KT M00/M03 A302 RMK A01 T10041034  RH  080%=      5-min Rain = 0
KBR1 190950Z 31009KT M00/M03 A302 RMK A01 T10041034  RH  080%=      5-min Rain = 0
KBR1 190951Z 32009KT M00/M04 A302 RMK A01 T10041035  RH  080%=      5-min Rain = 0
KBR1 190952Z 32008KT M00/M03 A302 RMK A01 T10031034  RH  080%=      5-min Rain = 0
KBR1 190953Z 32008KT M00/M04 A302 RMK A01 T10041035  RH  079%=      5-min Rain = 0
KBR1 190954Z 32009KT M00/M04 A302 RMK A01 T10031035  RH  079%=      5-min Rain = 0
KBR1 190955Z 32009KT M00/M04 A302 RMK A01 T10031035  RH  079%=      5-min Rain = 0
KBR1 190956Z 33008KT M00/M04 A302 RMK A01 T10021035  RH  079%=      5-min Rain = 0
KBR1 190957Z 33009KT M00/M04 A302 RMK A01 T10021035  RH  078%=      5-min Rain = 0
KBR1 190958Z 33009KT M00/M04 A302 RMK A01 T10021035  RH  078%=      5-min Rain = 0
KBR1 190959Z 33009KT M00/M04 A302 RMK A01 T10021035  RH  078%=      5-min Rain = 0
KBR1 191000Z 33009KT M00/M04 A302 RMK A01 T10021036  RH  078%=      5-min Rain = 0
KBR1 191001Z 33009KT M00/M04 A302 RMK A01 T10021036  RH  078%=      5-min Rain = 0
KBR1 191002Z 34009KT M00/M04 A302 RMK A01 T10021036  RH  078%=      5-min Rain = 0
KBR1 191003Z 34010KT M00/M04 A302 RMK A01 T10011035  RH  077%=      5-min Rain = 0
KBR1 191004Z 33009KT M00/M04 A302 RMK A01 T10011036  RH  077%=      5-min Rain = 0
KBR1 191005Z 34010KT 00/04 A302 RMK A01 T00-00-35  RH  077%=      5-min Rain = 0
KBR1 191006Z 34009KT 00/04 A302 RMK A01 T00-00-36  RH  077%=      5-min Rain = 0
KBR1 191007Z 33009KT 00/04 A302 RMK A01 T00-00-36  RH  077%=      5-min Rain = 0
KBR1 191008Z 33009KT 00/04 A302 RMK A01 T00000-36  RH  077%=      5-min Rain = 0
KBR1 191009Z 33010KT 00/04 A302 RMK A01 T00-00-36  RH  077%=      5-min Rain = 0
KBR1 191010Z 33010KT 00/04 A302 RMK A01 T00000-35  RH  077%=      5-min Rain = 0
KBR1 191011Z 33010KT 00/04 A302 RMK A01 T00000-35  RH  077%=      5-min Rain = 0
KBR1 191012Z 33010KT 00/04 A302 RMK A01 T00000-36  RH  077%=      5-min Rain = 0
KBR1 191013Z 33010KT 00/04 A302 RMK A01 T00000-36  RH  077%=      5-min Rain = 0
KBR1 191014Z 33010KT 00/M04 A302 RMK A01 T00011035  RH  077%=      5-min Rain = 0
KBR1 191015Z 33009KT 00/M04 A302 RMK A01 T00011036  RH  077%=      5-min Rain = 0
KBR1 191016Z 33009KT 00/04 A302 RMK A01 T00000-35  RH  077%=      5-min Rain = 0
KBR1 191017Z 33010KT 00/04 A302 RMK A01 T00-00-35  RH  077%=      5-min Rain = 0
KBR1 191018Z 32009KT 00/04 A302 RMK A01 T00000-35  RH  077%=      5-min Rain = 0
KBR1 191019Z 33009KT 00/04 A302 RMK A01 T00000-36  RH  077%=      5-min Rain = 0
KBR1 191020Z 32009KT 00/04 A302 RMK A01 T00000-36  RH  077%=      5-min Rain = 0
KBR1 191021Z 32009KT 00/04 A302 RMK A01 T00000-36  RH  077%=      5-min Rain = 0
KBR1 191022Z 32008KT 00/04 A302 RMK A01 T00000-36  RH  077%=      5-min Rain = 0
KBR1 191023Z 32009KT M00/M04 A302 RMK A01 T10011036  RH  077%=      5-min Rain = 0
KBR1 191024Z 32008KT M00/M04 A302 RMK A01 T10011036  RH  077%=      5-min Rain = 0
KBR1 191025Z 32008KT M00/M04 A302 RMK A01 T10021037  RH  077%=      5-min Rain = 0
KBR1 191026Z 32007KT M00/M04 A302 RMK A01 T10021036  RH  078%=      5-min Rain = 0
KBR1 191027Z 32008KT M00/M04 A302 RMK A01 T10021036  RH  078%=      5-min Rain = 0
KBR1 191028Z 32007KT M00/M04 A302 RMK A01 T10031036  RH  078%=      5-min Rain = 0
KBR1 191029Z 32007KT M00/M04 A302 RMK A01 T10031036  RH  078%=      5-min Rain = 0
KBR1 191030Z 32006KT M00/M04 A302 RMK A01 T10031036  RH  078%=      5-min Rain = 0
KBR1 191031Z 32006KT M00/M04 A302 RMK A01 T10041037  RH  078%=      5-min Rain = 0
KBR1 191032Z 32006KT M00/M04 A302 RMK A01 T10041037  RH  078%=      5-min Rain = 0
KBR1 191033Z 32007KT M00/M04 A302 RMK A01 T10041037  RH  078%=      5-min Rain = 0
KBR1 191034Z 32007KT M00/M04 A302 RMK A01 T10041037  RH  078%=      5-min Rain = 0
KBR1 191035Z 32006KT M00/M04 A302 RMK A01 T10041038  RH  078%=      5-min Rain = 0
KBR1 191036Z 32006KT M01/M04 A302 RMK A01 T10051038  RH  078%=      5-min Rain = 0
KBR1 191037Z 31006KT M01/M04 A302 RMK A01 T10051038  RH  078%=      5-min Rain = 0
KBR1 191038Z 31006KT M01/M04 A302 RMK A01 T10061038  RH  079%=      5-min Rain = 0
KBR1 191039Z 31006KT M01/M04 A302 RMK A01 T10061039  RH  079%=      5-min Rain = 0
KBR1 191040Z 31006KT M01/M04 A302 RMK A01 T10071039  RH  079%=      5-min Rain = 0
KBR1 191041Z 31006KT M01/M04 A302 RMK A01 T10081039  RH  079%=      5-min Rain = 0
KBR1 191042Z 31005KT M01/M04 A302 RMK A01 T10081040  RH  079%=      5-min Rain = 0
KBR1 191043Z 31005KT M01/M04 A302 RMK A01 T10091040  RH  079%=      5-min Rain = 0
KBR1 191044Z 31005KT M01/M04 A302 RMK A01 T10091040  RH  080%=      5-min Rain = 0
KBR1 191045Z 31005KT M01/M04 A302 RMK A01 T10101040  RH  080%=      5-min Rain = 0
KBR1 191046Z 31005KT M01/M04 A302 RMK A01 T10101040  RH  080%=      5-min Rain = 0
KBR1 191047Z 30005KT M01/M04 A302 RMK A01 T10101040  RH  080%=      5-min Rain = 0
KBR1 191048Z 31004KT M01/M04 A302 RMK A01 T10101040  RH  080%=      5-min Rain = 0
KBR1 191049Z 30005KT M01/M04 A302 RMK A01 T10111041  RH  080%=      5-min Rain = 0
KBR1 191050Z 30005KT M01/M04 A302 RMK A01 T10111041  RH  080%=      5-min Rain = 0
KBR1 191051Z 30005KT M01/M04 A302 RMK A01 T10131042  RH  081%=      5-min Rain = 0
KBR1 191052Z 30005KT M01/M04 A302 RMK A01 T10131042  RH  081%=      5-min Rain = 0
KBR1 191053Z 30005KT M01/M04 A302 RMK A01 T10141042  RH  081%=      5-min Rain = 0
KBR1 191054Z 30004KT M01/M04 A302 RMK A01 T10141042  RH  081%=      5-min Rain = 0
KBR1 191055Z 30005KT M01/M04 A302 RMK A01 T10141042  RH  081%=      5-min Rain = 0
KBR1 191056Z 30004KT M02/M04 A302 RMK A01 T10151042  RH  082%=      5-min Rain = 0
KBR1 191057Z 30004KT M02/M04 A302 RMK A01 T10151042  RH  082%=      5-min Rain = 0
KBR1 191058Z 31004KT M02/M04 A302 RMK A01 T10151043  RH  082%=      5-min Rain = 0
KBR1 191059Z 31004KT M02/M04 A302 RMK A01 T10161043  RH  082%=      5-min Rain = 0
KBR1 191100Z 31004KT M02/M04 A302 RMK A01 T10161043  RH  082%=      5-min Rain = 0
KBR1 191101Z 32004KT M02/M04 A302 RMK A01 T10161042  RH  082%=      5-min Rain = 0
KBR1 191102Z 32004KT M02/M04 A302 RMK A01 T10151041  RH  082%=      5-min Rain = 0
KBR1 191103Z 33005KT M01/M04 A302 RMK A01 T10141041  RH  082%=      5-min Rain = 0
KBR1 191104Z 33004KT M01/M04 A302 RMK A01 T10131041  RH  081%=      5-min Rain = 0
KBR1 191105Z 34005KT M01/M04 A302 RMK A01 T10131041  RH  081%=      5-min Rain = 0
KBR1 191106Z 34005KT M01/M04 A3019 RMK A01 T10131041  RH  081%=      5-min Rain = 0
KBR1 191107Z 34004KT M01/M04 A3019 RMK A01 T10131042  RH  081%=      5-min Rain = 0
KBR1 191108Z 34005KT M01/M04 A302 RMK A01 T10131042  RH  081%=      5-min Rain = 0
KBR1 191109Z 34005KT M01/M04 A302 RMK A01 T10131042  RH  081%=      5-min Rain = 0
KBR1 191110Z 34005KT M01/M04 A302 RMK A01 T10131042  RH  081%=      5-min Rain = 0
KBR1 191111Z 34005KT M01/M04 A302 RMK A01 T10131042  RH  081%=      5-min Rain = 0
KBR1 191112Z 33005KT M01/M04 A302 RMK A01 T10131042  RH  081%=      5-min Rain = 0
KBR1 191113Z 33005KT M01/M04 A302 RMK A01 T10131042  RH  081%=      5-min Rain = 0
KBR1 191114Z 33006KT M01/M04 A302 RMK A01 T10131042  RH  081%=      5-min Rain = 0
KBR1 191115Z 33006KT M01/M04 A302 RMK A01 T10131042  RH  081%=      5-min Rain = 0
KBR1 191116Z 33006KT M01/M04 A302 RMK A01 T10131042  RH  081%=      5-min Rain = 0
KBR1 191117Z 33007KT M01/M04 A302 RMK A01 T10131042  RH  081%=      5-min Rain = 0
KBR1 191118Z 33006KT M01/M04 A302 RMK A01 T10131042  RH  081%=      5-min Rain = 0
KBR1 191119Z 34006KT M01/M04 A302 RMK A01 T10121042  RH  080%=      5-min Rain = 0
KBR1 191120Z 34007KT M01/M04 A302 RMK A01 T10121042  RH  080%=      5-min Rain = 0
KBR1 191121Z 34006KT M01/M04 A302 RMK A01 T10121042  RH  080%=      5-min Rain = 0
KBR1 191122Z 34006KT M01/M04 A302 RMK A01 T10111042  RH  080%=      5-min Rain = 0
KBR1 191123Z 34007KT M01/M04 A302 RMK A01 T10111042  RH  080%=      5-min Rain = 0
KBR1 191124Z 34007KT M01/M04 A302 RMK A01 T10121042  RH  080%=      5-min Rain = 0
KBR1 191125Z 34007KT M01/M04 A302 RMK A01 T10121041  RH  080%=      5-min Rain = 0
KBR1 191126Z 34007KT M01/M04 A302 RMK A01 T10111041  RH  080%=      5-min Rain = 0
KBR1 191127Z 34007KT M01/M04 A302 RMK A01 T10101041  RH  080%=      5-min Rain = 0
KBR1 191128Z 34008KT M01/M04 A302 RMK A01 T10101041  RH  079%=      5-min Rain = 0
KBR1 191129Z 33008KT M01/M04 A302 RMK A01 T10091041  RH  079%=      5-min Rain = 0
KBR1 191130Z 33008KT M01/M04 A302 RMK A01 T10091041  RH  079%=      5-min Rain = 0
KBR1 191131Z 33008KT M01/M04 A302 RMK A01 T10091041  RH  079%=      5-min Rain = 0
KBR1 191132Z 33008KT M01/M04 A302 RMK A01 T10091042  RH  079%=      5-min Rain = 0
KBR1 191133Z 33008KT M01/M04 A302 RMK A01 T10091041  RH  079%=      5-min Rain = 0
KBR1 191134Z 32008KT M01/M04 A302 RMK A01 T10091042  RH  079%=      5-min Rain = 0
KBR1 191135Z 32008KT M01/M04 A302 RMK A01 T10091042  RH  079%=      5-min Rain = 0
KBR1 191136Z 32008KT M01/M04 A302 RMK A01 T10101042  RH  079%=      5-min Rain = 0
KBR1 191137Z 32008KT M01/M04 A302 RMK A01 T10111042  RH  079%=      5-min Rain = 0
KBR1 191138Z 32008KT M01/M04 A302 RMK A01 T10121043  RH  080%=      5-min Rain = 0
KBR1 191139Z 32007KT M01/M04 A302 RMK A01 T10131043  RH  080%=      5-min Rain = 0
KBR1 191140Z 31007KT M01/M04 A302 RMK A01 T10141043  RH  080%=      5-min Rain = 0
KBR1 191141Z 31008KT M02/M04 A302 RMK A01 T10151043  RH  081%=      5-min Rain = 0
KBR1 191142Z 31008KT M02/M04 A302 RMK A01 T10161044  RH  081%=      5-min Rain = 0
KBR1 191143Z 31007KT M02/M04 A302 RMK A01 T10161044  RH  081%=      5-min Rain = 0
KBR1 191144Z 30007KT M02/M04 A302 RMK A01 T10171044  RH  082%=      5-min Rain = 0
KBR1 191145Z 30007KT M02/M04 A302 RMK A01 T10171044  RH  082%=      5-min Rain = 0
KBR1 191146Z 30008KT M02/M04 A302 RMK A01 T10171044  RH  082%=      5-min Rain = 0
KBR1 191147Z 30007KT M02/M05 A302 RMK A01 T10181045  RH  082%=      5-min Rain = 0
KBR1 191148Z 30007KT M02/M04 A302 RMK A01 T10181044  RH  082%=      5-min Rain = 0
KBR1 191149Z 30007KT M02/M05 A302 RMK A01 T10181045  RH  082%=      5-min Rain = 0
KBR1 191150Z 30007KT M02/M05 A3021 RMK A01 T10191045  RH  082%=      5-min Rain = 0
KBR1 191151Z 30007KT M02/M05 A3021 RMK A01 T10201046  RH  082%=      5-min Rain = 0
KBR1 191152Z 29006KT M02/M05 A3021 RMK A01 T10201046  RH  083%=      5-min Rain = 0
KBR1 191153Z 29007KT M02/M05 A3021 RMK A01 T10211047  RH  083%=      5-min Rain = 0
KBR1 191154Z 29006KT M02/M05 A3021 RMK A01 T10231048  RH  083%=      5-min Rain = 0
KBR1 191155Z 29006KT M02/M05 A3021 RMK A01 T10231047  RH  083%=      5-min Rain = 0
KBR1 191156Z 29006KT M02/M05 A3021 RMK A01 T10241047  RH  084%=      5-min Rain = 0
KBR1 191157Z 30006KT M02/M05 A3021 RMK A01 T10241047  RH  084%=      5-min Rain = 0
KBR1 191158Z 30006KT M02/M05 A3021 RMK A01 T10241046  RH  084%=      5-min Rain = 0
KBR1 191159Z 30006KT M02/M05 A3021 RMK A01 T10241046  RH  084%=      5-min Rain = 0
KBR1 191200Z 30006KT M02/M05 A3021 RMK A01 T10231046  RH  084%=      5-min Rain = 0
KBR1 191201Z 30006KT M02/M05 A3021 RMK A01 T10231047  RH  084%=      5-min Rain = 0
KBR1 191202Z 30006KT M02/M05 A3021 RMK A01 T10221047  RH  084%=      5-min Rain = 0
KBR1 191203Z 31006KT M02/M05 A3021 RMK A01 T10221046  RH  083%=      5-min Rain = 0
KBR1 191204Z 31006KT M02/M05 A3021 RMK A01 T10221047  RH  084%=      5-min Rain = 0
KBR1 191205Z 31006KT M02/M05 A3021 RMK A01 T10221046  RH  084%=      5-min Rain = 0
KBR1 191206Z 31006KT M02/M05 A3021 RMK A01 T10221047  RH  084%=      5-min Rain = 0
KBR1 191207Z 31006KT M02/M05 A3021 RMK A01 T10221047  RH  083%=      5-min Rain = 0
KBR1 191208Z 31005KT M02/M05 A3021 RMK A01 T10221047  RH  083%=      5-min Rain = 0
KBR1 191209Z 31005KT M02/M05 A3021 RMK A01 T10221047  RH  083%=      5-min Rain = 0
KBR1 191210Z 32005KT M02/M05 A3021 RMK A01 T10221047  RH  083%=      5-min Rain = 0
KBR1 191211Z 32005KT M02/M05 A3021 RMK A01 T10211046  RH  083%=      5-min Rain = 0
KBR1 191212Z 32005KT M02/M05 A3021 RMK A01 T10221047  RH  083%=      5-min Rain = 0
KBR1 191213Z 32005KT M02/M05 A3021 RMK A01 T10211046  RH  083%=      5-min Rain = 0
KBR1 191214Z 32005KT M02/M05 A3021 RMK A01 T10211046  RH  083%=      5-min Rain = 0
KBR1 191215Z 31005KT M02/M05 A3021 RMK A01 T10201045  RH  083%=      5-min Rain = 0
KBR1 191216Z 32005KT M02/M05 A3021 RMK A01 T10201046  RH  083%=      5-min Rain = 0
KBR1 191217Z 31005KT M02/M05 A3021 RMK A01 T10201046  RH  083%=      5-min Rain = 0
KBR1 191218Z 31005KT M02/M05 A3021 RMK A01 T10201046  RH  083%=      5-min Rain = 0
KBR1 191219Z 31005KT M02/M05 A3021 RMK A01 T10201046  RH  083%=      5-min Rain = 0
KBR1 191220Z 32005KT M02/M05 A3021 RMK A01 T10201046  RH  083%=      5-min Rain = 0
KBR1 191221Z 32005KT M02/M05 A3021 RMK A01 T10201046  RH  083%=      5-min Rain = 0
KBR1 191222Z 32005KT M02/M05 A3021 RMK A01 T10201046  RH  083%=      5-min Rain = 0
KBR1 191223Z 32005KT M02/M05 A3021 RMK A01 T10211046  RH  083%=      5-min Rain = 0
KBR1 191224Z 31006KT M02/M05 A3021 RMK A01 T10201046  RH  082%=      5-min Rain = 0
KBR1 191225Z 31005KT M02/M05 A3021 RMK A01 T10201046  RH  083%=      5-min Rain = 0
KBR1 191226Z 31005KT M02/M05 A3021 RMK A01 T10201046  RH  082%=      5-min Rain = 0
KBR1 191227Z 31005KT M02/M05 A3021 RMK A01 T10201046  RH  082%=      5-min Rain = 0
KBR1 191228Z 31005KT M02/M05 A3021 RMK A01 T10201046  RH  082%=      5-min Rain = 0
KBR1 191229Z 31005KT M02/M05 A3022 RMK A01 T10211046  RH  082%=      5-min Rain = 0
KBR1 191230Z 31005KT M02/M05 A3022 RMK A01 T10211047  RH  082%=      5-min Rain = 0
KBR1 191231Z 31005KT M02/M05 A3022 RMK A01 T10221047  RH  083%=      5-min Rain = 0
KBR1 191232Z 31005KT M02/M05 A3022 RMK A01 T10221048  RH  083%=      5-min Rain = 0
KBR1 191233Z 30005KT M02/M05 A3022 RMK A01 T10231049  RH  083%=      5-min Rain = 0
KBR1 191234Z 31005KT M02/M05 A3022 RMK A01 T10241049  RH  083%=      5-min Rain = 0
KBR1 191235Z 31005KT M02/M05 A3022 RMK A01 T10241048  RH  084%=      5-min Rain = 0
KBR1 191236Z 31005KT M02/M05 A3022 RMK A01 T10241048  RH  084%=      5-min Rain = 0
KBR1 191237Z 31005KT M02/M05 A3022 RMK A01 T10241048  RH  084%=      5-min Rain = 0
KBR1 191238Z 31005KT M02/M05 A3022 RMK A01 T10241048  RH  084%=      5-min Rain = 0
KBR1 191239Z 31004KT M02/M05 A3022 RMK A01 T10241048  RH  084%=      5-min Rain = 0
KBR1 191240Z 30004KT M02/M05 A3022 RMK A01 T10241048  RH  084%=      5-min Rain = 0
KBR1 191241Z 31004KT M03/M05 A3022 RMK A01 T10251049  RH  084%=      5-min Rain = 0
KBR1 191242Z 31004KT M03/M05 A3022 RMK A01 T10251049  RH  084%=      5-min Rain = 0
KBR1 191243Z 31004KT M03/M05 A3022 RMK A01 T10251048  RH  084%=      5-min Rain = 0
KBR1 191244Z 32004KT M03/M05 A3022 RMK A01 T10251049  RH  084%=      5-min Rain = 0
KBR1 191245Z 32004KT M03/M05 A3022 RMK A01 T10261049  RH  084%=      5-min Rain = 0
KBR1 191246Z 31004KT M03/M05 A3022 RMK A01 T10261049  RH  084%=      5-min Rain = 0
KBR1 191247Z 31003KT M03/M05 A3022 RMK A01 T10251048  RH  084%=      5-min Rain = 0
KBR1 191248Z 31003KT M03/M05 A3022 RMK A01 T10251049  RH  084%=      5-min Rain = 0
KBR1 191249Z 31002KT M03/M05 A3022 RMK A01 T10261049  RH  084%=      5-min Rain = 0
KBR1 191250Z 31002KT M03/M05 A3022 RMK A01 T10261049  RH  084%=      5-min Rain = 0
KBR1 191251Z 30001KT M03/M05 A3022 RMK A01 T10261049  RH  084%=      5-min Rain = 0
KBR1 191252Z 30001KT M03/M05 A3023 RMK A01 T10271049  RH  085%=      5-min Rain = 0
KBR1 191253Z 29001KT M03/M05 A3023 RMK A01 T10271049  RH  085%=      5-min Rain = 0
KBR1 191254Z 28002KT M03/M05 A3023 RMK A01 T10271049  RH  085%=      5-min Rain = 0
KBR1 191255Z 29002KT M03/M05 A3023 RMK A01 T10271049  RH  085%=      5-min Rain = 0
KBR1 191256Z 29002KT M03/M05 A3023 RMK A01 T10261048  RH  085%=      5-min Rain = 0
KBR1 191257Z 30002KT M03/M05 A3023 RMK A01 T10261049  RH  084%=      5-min Rain = 0
KBR1 191258Z 29002KT M03/M05 A3023 RMK A01 T10271050  RH  084%=      5-min Rain = 0
KBR1 191259Z 30002KT M03/M05 A3023 RMK A01 T10261049  RH  084%=      5-min Rain = 0
KBR1 191300Z 29002KT M03/M05 A3023 RMK A01 T10261049  RH  084%=      5-min Rain = 0
KBR1 191301Z 30002KT M03/M05 A3023 RMK A01 T10271049  RH  084%=      5-min Rain = 0
KBR1 191302Z 30001KT M03/M05 A3023 RMK A01 T10261049  RH  084%=      5-min Rain = 0
KBR1 191303Z 29002KT M03/M05 A3023 RMK A01 T10261049  RH  084%=      5-min Rain = 0
KBR1 191304Z 30001KT M03/M05 A3023 RMK A01 T10271049  RH  084%=      5-min Rain = 0
KBR1 191305Z 29002KT M03/M05 A3024 RMK A01 T10261049  RH  084%=      5-min Rain = 0
KBR1 191306Z 29002KT M03/M05 A3024 RMK A01 T10261049  RH  084%=      5-min Rain = 0
KBR1 191307Z 29002KT M03/M05 A3024 RMK A01 T10251049  RH  084%=      5-min Rain = 0
KBR1 191308Z 28002KT M03/M05 A3024 RMK A01 T10251049  RH  083%=      5-min Rain = 0
KBR1 191309Z 28002KT M03/M05 A3024 RMK A01 T10251050  RH  083%=      5-min Rain = 0
KBR1 191310Z 27002KT M03/M05 A3024 RMK A01 T10251049  RH  083%=      5-min Rain = 0
KBR1 191311Z 26002KT M03/M05 A3024 RMK A01 T10251049  RH  083%=      5-min Rain = 0
KBR1 191312Z 22002KT M03/M05 A3024 RMK A01 T10261050  RH  083%=      5-min Rain = 0
KBR1 191313Z 20002KT M03/M05 A3024 RMK A01 T10271052  RH  083%=      5-min Rain = 0
KBR1 191314Z 21003KT M03/M05 A3024 RMK A01 T10281052  RH  083%=      5-min Rain = 0
KBR1 191315Z 21003KT M03/M05 A3024 RMK A01 T10291053  RH  083%=      5-min Rain = 0
KBR1 191316Z 21003KT M03/M05 A3024 RMK A01 T10311054  RH  084%=      5-min Rain = 0
KBR1 191317Z 21003KT M03/M06 A3024 RMK A01 T10331057  RH  083%=      5-min Rain = 0
KBR1 191318Z 22003KT M04/M06 A3024 RMK A01 T10351059  RH  084%=      5-min Rain = 0
KBR1 191319Z 22003KT M04/M06 A3024 RMK A01 T10371060  RH  084%=      5-min Rain = 0
KBR1 191320Z 22003KT M04/M06 A3024 RMK A01 T10391061  RH  085%=      5-min Rain = 0
KBR1 191321Z 22003KT M04/M06 A3024 RMK A01 T10401061  RH  085%=      5-min Rain = 0
KBR1 191322Z 23002KT M04/M06 A3024 RMK A01 T10401060  RH  086%=      5-min Rain = 0
KBR1 191323Z 23002KT M04/M06 A3025 RMK A01 T10411060  RH  087%=      5-min Rain = 0
KBR1 191324Z 23002KT M04/M06 A3025 RMK A01 T10401059  RH  087%=      5-min Rain = 0
KBR1 191325Z 24002KT M04/M06 A3025 RMK A01 T10401058  RH  088%=      5-min Rain = 0
KBR1 191326Z 25002KT M04/M06 A3025 RMK A01 T10391056  RH  088%=      5-min Rain = 0
KBR1 191327Z 24002KT M04/M05 A3025 RMK A01 T10371054  RH  088%=      5-min Rain = 0
KBR1 191328Z 25002KT M04/M05 A3025 RMK A01 T10361053  RH  088%=      5-min Rain = 0
KBR1 191329Z 25002KT M03/M05 A3025 RMK A01 T10341053  RH  087%=      5-min Rain = 0
KBR1 191330Z 25002KT M03/M05 A3025 RMK A01 T10331053  RH  086%=      5-min Rain = 0
KBR1 191331Z 25003KT M03/M05 A3025 RMK A01 T10331054  RH  086%=      5-min Rain = 0
KBR1 191332Z 26003KT M03/M06 A3025 RMK A01 T10341055  RH  085%=      5-min Rain = 0
KBR1 191333Z 25003KT M03/M06 A3025 RMK A01 T10341056  RH  085%=      5-min Rain = 0
KBR1 191334Z 25003KT M04/M06 A3025 RMK A01 T10351056  RH  085%=      5-min Rain = 0
KBR1 191335Z 25003KT M04/M06 A3025 RMK A01 T10361056  RH  086%=      5-min Rain = 0
KBR1 191336Z 26004KT M04/M06 A3025 RMK A01 T10361057  RH  086%=      5-min Rain = 0
KBR1 191337Z 26004KT M04/M06 A3026 RMK A01 T10371057  RH  086%=      5-min Rain = 0
KBR1 191338Z 26004KT M04/M06 A3026 RMK A01 T10371057  RH  086%=      5-min Rain = 0
KBR1 191339Z 26005KT M04/M06 A3026 RMK A01 T10371057  RH  086%=      5-min Rain = 0
KBR1 191340Z 26005KT M04/M06 A3026 RMK A01 T10381058  RH  086%=      5-min Rain = 0
KBR1 191341Z 26005KT M04/M06 A3026 RMK A01 T10391058  RH  086%=      5-min Rain = 0
KBR1 191342Z 25005KT M04/M06 A3026 RMK A01 T10401058  RH  087%=      5-min Rain = 0
KBR1 191343Z 25005KT M04/M06 A3026 RMK A01 T10401059  RH  087%=      5-min Rain = 0
KBR1 191344Z 26004KT M04/M06 A3026 RMK A01 T10411059  RH  087%=      5-min Rain = 0
KBR1 191345Z 27005KT M04/M06 A3026 RMK A01 T10421060  RH  088%=      5-min Rain = 0
KBR1 191346Z 27004KT M04/M06 A3026 RMK A01 T10421059  RH  088%=      5-min Rain = 0
KBR1 191347Z 28004KT M04/M06 A3026 RMK A01 T10421058  RH  089%=      5-min Rain = 0
KBR1 191348Z 28004KT M04/M06 A3026 RMK A01 T10411056  RH  089%=      5-min Rain = 0
KBR1 191349Z 29004KT M04/M06 A3026 RMK A01 T10401056  RH  089%=      5-min Rain = 0
KBR1 191350Z 29005KT M04/M06 A3026 RMK A01 T10391056  RH  088%=      5-min Rain = 0
KBR1 191351Z 30005KT M04/M06 A3026 RMK A01 T10391056  RH  088%=      5-min Rain = 0
KBR1 191352Z 30005KT M04/M06 A3026 RMK A01 T10391057  RH  088%=      5-min Rain = 0
KBR1 191353Z 30005KT M04/M06 A3026 RMK A01 T10391057  RH  088%=      5-min Rain = 0
KBR1 191354Z 30005KT M04/M06 A3026 RMK A01 T10401057  RH  088%=      5-min Rain = 0
KBR1 191355Z 30005KT M04/M06 A3026 RMK A01 T10401057  RH  088%=      5-min Rain = 0
KBR1 191356Z 30005KT M04/M06 A3027 RMK A01 T10401057  RH  088%=      5-min Rain = 0
KBR1 191357Z 30005KT M04/M06 A3027 RMK A01 T10391056  RH  088%=      5-min Rain = 0
KBR1 191358Z 31004KT M04/M06 A3027 RMK A01 T10391055  RH  089%=      5-min Rain = 0
KBR1 191359Z 32004KT M04/M05 A3027 RMK A01 T10381054  RH  088%=      5-min Rain = 0
KBR1 191400Z 32004KT M04/M06 A3027 RMK A01 T10381055  RH  088%=      5-min Rain = 0
KBR1 191401Z 33003KT M04/M06 A3027 RMK A01 T10381056  RH  088%=      5-min Rain = 0
KBR1 191402Z 32003KT M04/M06 A3027 RMK A01 T10381056  RH  088%=      5-min Rain = 0
KBR1 191403Z 33002KT M04/M06 A3027 RMK A01 T10381056  RH  088%=      5-min Rain = 0
KBR1 191404Z 00002KT M04/M06 A3027 RMK A01 T10381055  RH  088%=      5-min Rain = 0
KBR1 191405Z 34002KT M04/M06 A3027 RMK A01 T10381055  RH  088%=      5-min Rain = 0
KBR1 191406Z 32003KT M04/M05 A3027 RMK A01 T10371054  RH  088%=      5-min Rain = 0
KBR1 191407Z 32003KT M04/M05 A3027 RMK A01 T10371054  RH  088%=      5-min Rain = 0
KBR1 191408Z 31004KT M04/M05 A3027 RMK A01 T10361054  RH  088%=      5-min Rain = 0
KBR1 191409Z 31004KT M04/M05 A3027 RMK A01 T10361054  RH  087%=      5-min Rain = 0
KBR1 191410Z 30004KT M04/M05 A3027 RMK A01 T10351054  RH  087%=      5-min Rain = 0
KBR1 191411Z 30005KT M04/M05 A3027 RMK A01 T10351054  RH  087%=      5-min Rain = 0
KBR1 191412Z 30005KT M04/M05 A3027 RMK A01 T10351054  RH  087%=      5-min Rain = 0
KBR1 191413Z 30006KT M03/M05 A3027 RMK A01 T10341053  RH  087%=      5-min Rain = 0
KBR1 191414Z 30006KT M03/M05 A3027 RMK A01 T10341053  RH  087%=      5-min Rain = 0
KBR1 191415Z 31006KT M03/M05 A3027 RMK A01 T10341052  RH  087%=      5-min Rain = 0
KBR1 191416Z 32005KT M03/M05 A3027 RMK A01 T10321051  RH  087%=      5-min Rain = 0
KBR1 191417Z 32005KT M03/M05 A3027 RMK A01 T10311049  RH  087%=      5-min Rain = 0
KBR1 191418Z 32004KT M03/M05 A3027 RMK A01 T10291049  RH  086%=      5-min Rain = 0
KBR1 191419Z 33003KT M03/M05 A3027 RMK A01 T10291049  RH  086%=      5-min Rain = 0
KBR1 191420Z 35002KT M03/M05 A3027 RMK A01 T10281050  RH  085%=      5-min Rain = 0
KBR1 191421Z 00002KT M03/M05 A3027 RMK A01 T10291052  RH  084%=      5-min Rain = 0
KBR1 191422Z 34002KT M03/M05 A3027 RMK A01 T10291053  RH  084%=      5-min Rain = 0
KBR1 191423Z 33003KT M03/M05 A3027 RMK A01 T10291053  RH  084%=      5-min Rain = 0
KBR1 191424Z 33003KT M03/M05 A3027 RMK A01 T10291052  RH  084%=      5-min Rain = 0
KBR1 191425Z 33003KT M03/M05 A3027 RMK A01 T10271050  RH  084%=      5-min Rain = 0
KBR1 191426Z 33004KT M03/M05 A3027 RMK A01 T10261050  RH  084%=      5-min Rain = 0
KBR1 191427Z 33004KT M03/M05 A3027 RMK A01 T10251051  RH  083%=      5-min Rain = 0
KBR1 191428Z 32004KT M03/M05 A3027 RMK A01 T10251051  RH  083%=      5-min Rain = 0
KBR1 191429Z 32005KT M03/M05 A3027 RMK A01 T10251050  RH  083%=      5-min Rain = 0
KBR1 191430Z 32004KT M02/M05 A3027 RMK A01 T10241049  RH  083%=      5-min Rain = 0
KBR1 191431Z 31004KT M02/M05 A3027 RMK A01 T10241049  RH  083%=      5-min Rain = 0
KBR1 191432Z 30005KT M02/M05 A3027 RMK A01 T10241049  RH  083%=      5-min Rain = 0
KBR1 191433Z 31005KT M02/M05 A3027 RMK A01 T10241050  RH  083%=      5-min Rain = 0
KBR1 191434Z 31005KT M03/M05 A3027 RMK A01 T10251050  RH  083%=      5-min Rain = 0
KBR1 191435Z 32004KT M03/M05 A3027 RMK A01 T10251049  RH  083%=      5-min Rain = 0
KBR1 191436Z 33004KT M02/M05 A3027 RMK A01 T10241048  RH  084%=      5-min Rain = 0
KBR1 191437Z 33004KT M02/M05 A3027 RMK A01 T10231047  RH  083%=      5-min Rain = 0
KBR1 191438Z 34004KT M02/M05 A3027 RMK A01 T10221047  RH  083%=      5-min Rain = 0
KBR1 191439Z 34004KT M02/M05 A3027 RMK A01 T10211046  RH  083%=      5-min Rain = 0
KBR1 191440Z 33004KT M02/M05 A3028 RMK A01 T10201045  RH  083%=      5-min Rain = 0
KBR1 191441Z 32003KT M02/M05 A3028 RMK A01 T10201045  RH  083%=      5-min Rain = 0
KBR1 191442Z 34003KT M02/M05 A3028 RMK A01 T10201045  RH  083%=      5-min Rain = 0
KBR1 191443Z 34002KT M02/M04 A3028 RMK A01 T10191044  RH  083%=      5-min Rain = 0
KBR1 191444Z 01002KT M02/M04 A3028 RMK A01 T10181043  RH  083%=      5-min Rain = 0
KBR1 191445Z 01003KT M02/M04 A3028 RMK A01 T10181043  RH  083%=      5-min Rain = 0
KBR1 191446Z 35003KT M02/M04 A3028 RMK A01 T10181044  RH  083%=      5-min Rain = 0
KBR1 191447Z 01003KT M02/M04 A3028 RMK A01 T10181044  RH  083%=      5-min Rain = 0
KBR1 191448Z 01003KT M02/M04 A3028 RMK A01 T10181042  RH  083%=      5-min Rain = 0
KBR1 191449Z 00003KT M02/M04 A3028 RMK A01 T10171041  RH  084%=      5-min Rain = 0
KBR1 191450Z 35003KT M02/M04 A3028 RMK A01 T10161040  RH  084%=      5-min Rain = 0
KBR1 191451Z 34004KT M02/M04 A3028 RMK A01 T10151039  RH  084%=      5-min Rain = 0
KBR1 191452Z 34003KT M02/M04 A3028 RMK A01 T10151038  RH  084%=      5-min Rain = 0
KBR1 191453Z 36003KT M01/M04 A3028 RMK A01 T10141038  RH  084%=      5-min Rain = 0
KBR1 191454Z 35003KT M01/M04 A3028 RMK A01 T10131037  RH  083%=      5-min Rain = 0
KBR1 191455Z 34003KT M01/M04 A3028 RMK A01 T10121037  RH  083%=      5-min Rain = 0
KBR1 191456Z 35003KT M01/M04 A3028 RMK A01 T10111036  RH  083%=      5-min Rain = 0
KBR1 191457Z 34003KT M01/M04 A3028 RMK A01 T10091035  RH  083%=      5-min Rain = 0
KBR1 191458Z 34003KT M01/M04 A3028 RMK A01 T10081035  RH  082%=      5-min Rain = 0
KBR1 191459Z 33002KT M01/M04 A3028 RMK A01 T10071036  RH  081%=      5-min Rain = 0
KBR1 191500Z 33003KT M01/M04 A3028 RMK A01 T10061035  RH  081%=      5-min Rain = 0
KBR1 191501Z 33002KT M01/M04 A3028 RMK A01 T10051035  RH  080%=      5-min Rain = 0
KBR1 191502Z 33003KT M00/M04 A3028 RMK A01 T10031036  RH  079%=      5-min Rain = 0
KBR1 191503Z 34003KT M00/M03 A3028 RMK A01 T10011034  RH  079%=      5-min Rain = 0
KBR1 191504Z 34003KT 00/03 A3028 RMK A01 T00000-33  RH  079%=      5-min Rain = 0
KBR1 191505Z 33004KT 00/M03 A3028 RMK A01 T00021031  RH  078%=      5-min Rain = 0
KBR1 191506Z 33004KT 00/M03 A3028 RMK A01 T00031030  RH  078%=      5-min Rain = 0
KBR1 191507Z 33004KT 01/M03 A3028 RMK A01 T00051031  RH  077%=      5-min Rain = 0
KBR1 191508Z 33004KT 01/M03 A3028 RMK A01 T00071032  RH  075%=      5-min Rain = 0
KBR1 191509Z 34004KT 01/M03 A3029 RMK A01 T00081031  RH  075%=      5-min Rain = 0
KBR1 191510Z 34004KT 01/M03 A3029 RMK A01 T00091030  RH  075%=      5-min Rain = 0
KBR1 191511Z 34003KT 01/M03 A3029 RMK A01 T00111029  RH  075%=      5-min Rain = 0
KBR1 191512Z 34003KT 01/M03 A3029 RMK A01 T00121028  RH  075%=      5-min Rain = 0
KBR1 191513Z 33003KT 01/M03 A3029 RMK A01 T00131027  RH  075%=      5-min Rain = 0
KBR1 191514Z 33004KT 01/M03 A3029 RMK A01 T00141026  RH  075%=      5-min Rain = 0
KBR1 191515Z 33004KT 02/M03 A3029 RMK A01 T00151028  RH  073%=      5-min Rain = 0
KBR1 191516Z 32003KT 02/M03 A3029 RMK A01 T00161028  RH  073%=      5-min Rain = 0
KBR1 191517Z 32005KT 02/M03 A3029 RMK A01 T00171026  RH  073%=      5-min Rain = 0
KBR1 191518Z 32005KT 02/M03 A3029 RMK A01 T00181028  RH  071%=      5-min Rain = 0
KBR1 191519Z 32005KT 02/M03 A3029 RMK A01 T00191028  RH  071%=      5-min Rain = 0
KBR1 191520Z 32005KT 02/M03 A3029 RMK A01 T00201027  RH  071%=      5-min Rain = 0
KBR1 191521Z 32006KT 02/M03 A3029 RMK A01 T00211027  RH  071%=      5-min Rain = 0
KBR1 191522Z 33006KT 02/M03 A3029 RMK A01 T00221026  RH  071%=      5-min Rain = 0
KBR1 191523Z 33005KT 02/M02 A3029 RMK A01 T00231024  RH  071%=      5-min Rain = 0
KBR1 191524Z 33006KT 02/M02 A3029 RMK A01 T00241022  RH  072%=      5-min Rain = 0
KBR1 191525Z 33006KT 03/M02 A3029 RMK A01 T00261021  RH  071%=      5-min Rain = 0
KBR1 191526Z 33007KT 03/M02 A3029 RMK A01 T00281021  RH  070%=      5-min Rain = 0
KBR1 191527Z 34007KT 03/M03 A3029 RMK A01 T00301025  RH  067%=      5-min Rain = 0
KBR1 191528Z 33007KT 03/M03 A3029 RMK A01 T00311025  RH  067%=      5-min Rain = 0
KBR1 191529Z 34007KT 03/M02 A3029 RMK A01 T00321024  RH  067%=      5-min Rain = 0
KBR1 191530Z 33009KT 03/M03 A3029 RMK A01 T00331026  RH  065%=      5-min Rain = 0
KBR1 191531Z 33009KT 03/M03 A3029 RMK A01 T00341027  RH  064%=      5-min Rain = 0
KBR1 191532Z 34008KT 04/M03 A3029 RMK A01 T00351025  RH  065%=      5-min Rain = 0
KBR1 191533Z 34009KT 04/M03 A303 RMK A01 T00351025  RH  065%=      5-min Rain = 0
KBR1 191534Z 34009KT 04/M02 A303 RMK A01 T00361024  RH  065%=      5-min Rain = 0
KBR1 191535Z 34010KT 04/M03 A303 RMK A01 T00361026  RH  064%=      5-min Rain = 0
KBR1 191536Z 34011KT 04/M03 A303 RMK A01 T00371027  RH  063%=      5-min Rain = 0
KBR1 191537Z 34011KT 04/M03 A303 RMK A01 T00381030  RH  061%=      5-min Rain = 0
KBR1 191538Z 34011KT 04/M03 A303 RMK A01 T00381027  RH  062%=      5-min Rain = 0
KBR1 191539Z 35011KT 04/M03 A303 RMK A01 T00391027  RH  062%=      5-min Rain = 0
KBR1 191540Z 35012KT 04/M03 A303 RMK A01 T00391028  RH  062%=      5-min Rain = 0
KBR1 191541Z 35011KT 04/M03 A303 RMK A01 T00401027  RH  062%=      5-min Rain = 0
KBR1 191542Z 35012KT 04/M03 A303 RMK A01 T00401025  RH  063%=      5-min Rain = 0
KBR1 191543Z 35012KT 04/M03 A303 RMK A01 T00411025  RH  062%=      5-min Rain = 0
KBR1 191544Z 36011KT 04/M03 A303 RMK A01 T00411027  RH  061%=      5-min Rain = 0
KBR1 191545Z 35009KT 04/M02 A303 RMK A01 T00411023  RH  063%=      5-min Rain = 0
KBR1 191546Z 00011KT 04/M02 A303 RMK A01 T00421021  RH  063%=      5-min Rain = 0
KBR1 191547Z 00013KT 04/M02 A303 RMK A01 T00431023  RH  062%=      5-min Rain = 0
KBR1 191548Z 00014KT 04/M03 A303 RMK A01 T00431027  RH  060%=      5-min Rain = 0
KBR1 191549Z 00013KT 04/M03 A3029 RMK A01 T00431029  RH  059%=      5-min Rain = 0
KBR1 191550Z 01016KT 04/M03 A3029 RMK A01 T00431029  RH  060%=      5-min Rain = 0
KBR1 191551Z 00014KT 04/M03 A3029 RMK A01 T00431029  RH  060%=      5-min Rain = 0
KBR1 191552Z 00015KT 04/M03 A3029 RMK A01 T00441028  RH  059%=      5-min Rain = 0
KBR1 191553Z 00015KT 04/M03 A303 RMK A01 T00441029  RH  059%=      5-min Rain = 0
KBR1 191554Z 01013KT 04/M03 A303 RMK A01 T00441029  RH  059%=      5-min Rain = 0
KBR1 191555Z 35014KT 05/M03 A303 RMK A01 T00451027  RH  060%=      5-min Rain = 0
KBR1 191556Z 01015KT 05/M03 A3029 RMK A01 T00461028  RH  059%=      5-min Rain = 0
KBR1 191557Z 36015KT 05/M03 A303 RMK A01 T00461028  RH  059%=      5-min Rain = 0
KBR1 191558Z 36014KT 05/M03 A303 RMK A01 T00461028  RH  059%=      5-min Rain = 0
KBR1 191559Z 35015KT 05/M03 A303 RMK A01 T00461029  RH  058%=      5-min Rain = 0
KBR1 191600Z 00012KT 05/M03 A303 RMK A01 T00471027  RH  059%=      5-min Rain = 0
KBR1 191601Z 36015KT 05/M02 A303 RMK A01 T00481024  RH  060%=      5-min Rain = 0
KBR1 191602Z 00017KT 05/M03 A303 RMK A01 T00481028  RH  058%=      5-min Rain = 0
KBR1 191603Z 00015KT 05/M03 A303 RMK A01 T00481030  RH  057%=      5-min Rain = 0
KBR1 191604Z 01015KT 05/M03 A303 RMK A01 T00481029  RH  058%=      5-min Rain = 0
KBR1 191605Z 00013KT 05/M03 A303 RMK A01 T00481027  RH  058%=      5-min Rain = 0
KBR1 191606Z 00014KT 05/M02 A303 RMK A01 T00491024  RH  059%=      5-min Rain = 0
KBR1 191607Z 00018KT 05/M03 A303 RMK A01 T00491027  RH  058%=      5-min Rain = 0
KBR1 191608Z 36016KT 05/M03 A303 RMK A01 T00491030  RH  056%=      5-min Rain = 0
KBR1 191609Z 36017KT 05/M03 A303 RMK A01 T00491028  RH  057%=      5-min Rain = 0
KBR1 191610Z 36015KT 05/M03 A303 RMK A01 T00491031  RH  056%=      5-min Rain = 0
KBR1 191611Z 35014KT 05/M03 A303 RMK A01 T00491029  RH  057%=      5-min Rain = 0
KBR1 191612Z 00014KT 05/M02 A303 RMK A01 T00501024  RH  059%=      5-min Rain = 0
KBR1 191613Z 36015KT 05/M03 A303 RMK A01 T00511025  RH  058%=      5-min Rain = 0
KBR1 191614Z 00015G20KT 05/M03 A303 RMK A01 T00511027  RH  057%=      5-min Rain = 0
KBR1 191615Z 36015KT 05/M03 A303 RMK A01 T00511028  RH  057%=      5-min Rain = 0
KBR1 191616Z 00016KT 05/M03 A303 RMK A01 T00511028  RH  057%=      5-min Rain = 0
KBR1 191617Z 00017KT 05/M03 A303 RMK A01 T00511028  RH  057%=      5-min Rain = 0
KBR1 191618Z 36018KT 05/M03 A303 RMK A01 T00511029  RH  056%=      5-min Rain = 0
KBR1 191619Z 01015KT 05/M03 A303 RMK A01 T00501028  RH  057%=      5-min Rain = 0
KBR1 191620Z 01014KT 05/M03 A303 RMK A01 T00511025  RH  058%=      5-min Rain = 0
KBR1 191621Z 00015KT 05/M02 A303 RMK A01 T00521024  RH  058%=      5-min Rain = 0
KBR1 191622Z 00016KT 05/M03 A303 RMK A01 T00531026  RH  057%=      5-min Rain = 0
KBR1 191623Z 00016KT 05/M03 A3031 RMK A01 T00521028  RH  056%=      5-min Rain = 0
KBR1 191624Z 00015KT 05/M03 A3031 RMK A01 T00521026  RH  057%=      5-min Rain = 0
KBR1 191625Z 00016KT 05/M03 A3031 RMK A01 T00521027  RH  057%=      5-min Rain = 0
KBR1 191626Z 00017KT 05/M03 A3031 RMK A01 T00521029  RH  056%=      5-min Rain = 0
KBR1 191627Z 01016KT 05/M03 A3031 RMK A01 T00521029  RH  056%=      5-min Rain = 0
KBR1 191628Z 36015KT 05/M03 A3031 RMK A01 T00521029  RH  056%=      5-min Rain = 0
KBR1 191629Z 00012KT 05/M03 A3031 RMK A01 T00531025  RH  057%=      5-min Rain = 0
KBR1 191630Z 00013KT 06/M02 A3031 RMK A01 T00551021  RH  058%=      5-min Rain = 0
KBR1 191631Z 01014KT 06/M02 A3031 RMK A01 T00561024  RH  057%=      5-min Rain = 0
KBR1 191632Z 01012KT 06/M03 A3031 RMK A01 T00561026  RH  055%=      5-min Rain = 0
KBR1 191633Z 01014KT 06/M02 A3031 RMK A01 T00561023  RH  057%=      5-min Rain = 0
KBR1 191634Z 01014KT 06/M03 A3031 RMK A01 T00571027  RH  055%=      5-min Rain = 0
KBR1 191635Z 01014KT 06/M03 A3031 RMK A01 T00571025  RH  056%=      5-min Rain = 0
KBR1 191636Z 01016KT 06/M03 A3031 RMK A01 T00571027  RH  055%=      5-min Rain = 0
KBR1 191637Z 01014KT 06/M03 A3031 RMK A01 T00561027  RH  055%=      5-min Rain = 0
KBR1 191638Z 00014KT 06/M03 A3031 RMK A01 T00571027  RH  055%=      5-min Rain = 0
KBR1 191639Z 00015KT 06/M03 A3032 RMK A01 T00571027  RH  055%=      5-min Rain = 0
KBR1 191640Z 36015KT 06/M03 A3032 RMK A01 T00571027  RH  055%=      5-min Rain = 0
KBR1 191641Z 00013KT 06/M03 A3032 RMK A01 T00571027  RH  055%=      5-min Rain = 0
KBR1 191642Z 36014KT 06/M03 A3032 RMK A01 T00571027  RH  055%=      5-min Rain = 0
KBR1 191643Z 00013KT 06/M03 A3032 RMK A01 T00581026  RH  055%=      5-min Rain = 0
KBR1 191644Z 00015KT 06/M03 A3032 RMK A01 T00581026  RH  055%=      5-min Rain = 0
KBR1 191645Z 00013KT 06/M03 A3032 RMK A01 T00581029  RH  053%=      5-min Rain = 0
KBR1 191646Z 00013KT 06/M03 A3032 RMK A01 T00581027  RH  054%=      5-min Rain = 0
KBR1 191647Z 01014KT 06/M03 A3032 RMK A01 T00581027  RH  054%=      5-min Rain = 0
KBR1 191648Z 36012KT 06/M03 A3032 RMK A01 T00591026  RH  055%=      5-min Rain = 0
KBR1 191649Z 35014KT 06/M02 A3032 RMK A01 T00611023  RH  055%=      5-min Rain = 0
KBR1 191650Z 36012KT 06/M02 A3032 RMK A01 T00611024  RH  055%=      5-min Rain = 0
KBR1 191651Z 35013KT 06/M03 A3032 RMK A01 T00621025  RH  054%=      5-min Rain = 0
KBR1 191652Z 36012KT 06/M03 A3032 RMK A01 T00611027  RH  053%=      5-min Rain = 0
KBR1 191653Z 00013KT 06/M03 A3032 RMK A01 T00601026  RH  054%=      5-min Rain = 0
KBR1 191654Z 35011KT 06/M03 A3032 RMK A01 T00611026  RH  054%=      5-min Rain = 0
KBR1 191655Z 35009KT 06/M02 A3032 RMK A01 T00621020  RH  055%=      5-min Rain = 0
KBR1 191656Z 34012KT 07/M02 A3032 RMK A01 T00651020  RH  054%=      5-min Rain = 0
KBR1 191657Z 34013KT 07/M02 A3032 RMK A01 T00651023  RH  053%=      5-min Rain = 0
KBR1 191658Z 34012KT 07/M03 A3032 RMK A01 T00651025  RH  053%=      5-min Rain = 0
KBR1 191659Z 35013KT 07/M03 A3032 RMK A01 T00651025  RH  053%=      5-min Rain = 0
KBR1 191700Z 35013KT 06/M03 A3032 RMK A01 T00641027  RH  052%=      5-min Rain = 0
KBR1 191701Z 35015KT 06/M03 A3032 RMK A01 T00641025  RH  053%=      5-min Rain = 0
KBR1 191702Z 34014KT 07/M03 A3032 RMK A01 T00651027  RH  052%=      5-min Rain = 0
KBR1 191703Z 35014KT 07/M03 A3032 RMK A01 T00651027  RH  052%=      5-min Rain = 0
KBR1 191704Z 35012KT 06/M03 A3032 RMK A01 T00641028  RH  052%=      5-min Rain = 0
KBR1 191705Z 35012KT 07/M03 A3032 RMK A01 T00651028  RH  052%=      5-min Rain = 0
KBR1 191706Z 35013KT 06/M03 A3032 RMK A01 T00641029  RH  051%=      5-min Rain = 0
KBR1 191707Z 00011KT 06/M03 A3032 RMK A01 T00641026  RH  052%=      5-min Rain = 0
KBR1 191708Z 35011KT 07/M03 A3032 RMK A01 T00651025  RH  053%=      5-min Rain = 0
KBR1 191709Z 35011KT 07/M03 A3032 RMK A01 T00661025  RH  052%=      5-min Rain = 0
KBR1 191710Z 35011KT 07/M03 A3032 RMK A01 T00661025  RH  052%=      5-min Rain = 0
KBR1 191711Z 35014KT 07/M02 A3032 RMK A01 T00681021  RH  053%=      5-min Rain = 0
KBR1 191712Z 35014KT 07/M02 A3032 RMK A01 T00681024  RH  052%=      5-min Rain = 0
KBR1 191713Z 36013KT 07/M03 A3032 RMK A01 T00681027  RH  051%=      5-min Rain = 0
KBR1 191714Z 35013KT 07/M03 A3032 RMK A01 T00671026  RH  052%=      5-min Rain = 0
KBR1 191715Z 36012KT 07/M02 A3032 RMK A01 T00681023  RH  052%=      5-min Rain = 0
KBR1 191716Z 36010KT 07/M02 A3032 RMK A01 T00691021  RH  053%=      5-min Rain = 0
KBR1 191717Z 35013KT 07/M02 A3032 RMK A01 T00701023  RH  052%=      5-min Rain = 0
KBR1 191718Z 34013KT 07/M03 A3032 RMK A01 T00681027  RH  050%=      5-min Rain = 0
KBR1 191719Z 34012KT 07/M03 A3032 RMK A01 T00681027  RH  051%=      5-min Rain = 0
KBR1 191720Z 34012KT 07/M03 A3032 RMK A01 T00691026  RH  051%=      5-min Rain = 0
KBR1 191721Z 34011KT 07/M03 A3032 RMK A01 T00691027  RH  050%=      5-min Rain = 0
KBR1 191722Z 34010KT 07/M03 A3032 RMK A01 T00691029  RH  050%=      5-min Rain = 0
KBR1 191723Z 35009KT 07/M03 A3032 RMK A01 T00701025  RH  051%=      5-min Rain = 0
KBR1 191724Z 35012KT 07/M02 A3032 RMK A01 T00711024  RH  051%=      5-min Rain = 0
KBR1 191725Z 35014KT 07/M03 A3032 RMK A01 T00711026  RH  050%=      5-min Rain = 0
KBR1 191726Z 01011KT 07/M02 A3032 RMK A01 T00711024  RH  051%=      5-min Rain = 0
KBR1 191727Z 36012KT 07/M02 A3032 RMK A01 T00711024  RH  051%=      5-min Rain = 0
KBR1 191728Z 00013KT 07/M03 A3032 RMK A01 T00721028  RH  049%=      5-min Rain = 0
KBR1 191729Z 35014KT 07/M03 A3032 RMK A01 T00711028  RH  049%=      5-min Rain = 0
KBR1 191730Z 00012KT 07/M03 A3032 RMK A01 T00701027  RH  050%=      5-min Rain = 0
KBR1 191731Z 01013KT 07/M03 A3031 RMK A01 T00701028  RH  050%=      5-min Rain = 0
KBR1 191732Z 35012KT 07/M03 A3031 RMK A01 T00691029  RH  049%=      5-min Rain = 0
KBR1 191733Z 00012KT 07/M03 A3031 RMK A01 T00701025  RH  051%=      5-min Rain = 0
KBR1 191734Z 36013KT 07/M02 A3031 RMK A01 T00731023  RH  050%=      5-min Rain = 0
KBR1 191735Z 00013KT 07/M03 A3031 RMK A01 T00721027  RH  049%=      5-min Rain = 0
KBR1 191736Z 36011KT 07/M03 A3031 RMK A01 T00711029  RH  049%=      5-min Rain = 0
KBR1 191737Z 00013KT 07/M03 A3031 RMK A01 T00711028  RH  049%=      5-min Rain = 0
KBR1 191738Z 36014KT 07/M03 A3031 RMK A01 T00711028  RH  049%=      5-min Rain = 0
KBR1 191739Z 35014KT 07/M03 A3031 RMK A01 T00721030  RH  048%=      5-min Rain = 0
KBR1 191740Z 35014KT 07/M03 A3031 RMK A01 T00721033  RH  047%=      5-min Rain = 0
KBR1 191741Z 35012KT 07/M03 A3032 RMK A01 T00711034  RH  047%=      5-min Rain = 0
KBR1 191742Z 35012KT 07/M03 A3032 RMK A01 T00711030  RH  049%=      5-min Rain = 0
KBR1 191743Z 01011KT 07/M03 A3031 RMK A01 T00721028  RH  049%=      5-min Rain = 0
KBR1 191744Z 02010KT 07/M02 A3031 RMK A01 T00721024  RH  050%=      5-min Rain = 0
KBR1 191745Z 02012KT 07/M02 A3031 RMK A01 T00741023  RH  050%=      5-min Rain = 0
KBR1 191746Z 02013KT 08/M03 A3031 RMK A01 T00751029  RH  048%=      5-min Rain = 0
KBR1 191747Z 01012KT 07/M03 A3031 RMK A01 T00741028  RH  048%=      5-min Rain = 0
KBR1 191748Z 36011KT 07/M03 A3031 RMK A01 T00731026  RH  049%=      5-min Rain = 0
KBR1 191749Z 36011KT 07/M03 A3031 RMK A01 T00731028  RH  049%=      5-min Rain = 0
KBR1 191750Z 35010KT 07/M03 A3031 RMK A01 T00721027  RH  049%=      5-min Rain = 0
KBR1 191751Z 01012KT 07/M03 A3031 RMK A01 T00731028  RH  049%=      5-min Rain = 0
KBR1 191752Z 00012KT 07/M03 A3031 RMK A01 T00721028  RH  049%=      5-min Rain = 0
KBR1 191753Z 00011KT 07/M03 A3031 RMK A01 T00721028  RH  049%=      5-min Rain = 0
KBR1 191754Z 02009KT 07/M03 A3031 RMK A01 T00731030  RH  048%=      5-min Rain = 0
KBR1 191755Z 01010KT 07/M03 A3031 RMK A01 T00731029  RH  049%=      5-min Rain = 0
KBR1 191756Z 02010KT 07/M03 A3031 RMK A01 T00741028  RH  048%=      5-min Rain = 0
KBR1 191757Z 35009KT 07/M03 A3031 RMK A01 T00741027  RH  048%=      5-min Rain = 0
KBR1 191758Z 34009KT 08/M03 A3031 RMK A01 T00751026  RH  049%=      5-min Rain = 0
KBR1 191759Z 01011KT 08/M03 A3031 RMK A01 T00761027  RH  048%=      5-min Rain = 0
KBR1 191800Z 02009KT 08/M03 A3031 RMK A01 T00751034  RH  046%=      5-min Rain = 0
KBR1 191801Z 01011KT 07/M04 A3031 RMK A01 T00741035  RH  046%=      5-min Rain = 0
KBR1 191802Z 01013KT 07/M03 A3031 RMK A01 T00741031  RH  047%=      5-min Rain = 0
KBR1 191803Z 36009KT 08/M03 A3031 RMK A01 T00751030  RH  047%=      5-min Rain = 0
KBR1 191804Z 35008KT 07/M03 A3031 RMK A01 T00741030  RH  048%=      5-min Rain = 0
KBR1 191805Z 02011KT 07/M03 A3031 RMK A01 T00741028  RH  048%=      5-min Rain = 0
KBR1 191806Z 36011KT 08/M03 A3031 RMK A01 T00761027  RH  048%=      5-min Rain = 0
KBR1 191807Z 01011KT 08/M03 A3031 RMK A01 T00751030  RH  047%=      5-min Rain = 0
KBR1 191808Z 36013KT 08/M03 A3031 RMK A01 T00751029  RH  048%=      5-min Rain = 0
KBR1 191809Z 36011KT 08/M03 A3031 RMK A01 T00751028  RH  048%=      5-min Rain = 0
KBR1 191810Z 01010KT 08/M03 A3031 RMK A01 T00751029  RH  047%=      5-min Rain = 0
KBR1 191811Z 00011KT 08/M03 A3031 RMK A01 T00751027  RH  048%=      5-min Rain = 0
KBR1 191812Z 35011KT 08/M03 A3031 RMK A01 T00761026  RH  048%=      5-min Rain = 0
KBR1 191813Z 35009KT 08/M03 A3031 RMK A01 T00761030  RH  047%=      5-min Rain = 0
KBR1 191814Z 01013KT 08/M03 A3031 RMK A01 T00761029  RH  048%=      5-min Rain = 0
KBR1 191815Z 01010KT 08/M03 A303 RMK A01 T00761028  RH  048%=      5-min Rain = 0
KBR1 191816Z 36009KT 08/M03 A303 RMK A01 T00751029  RH  047%=      5-min Rain = 0
KBR1 191817Z 35010KT 08/M03 A303 RMK A01 T00771027  RH  048%=      5-min Rain = 0
KBR1 191818Z 36008KT 08/M03 A303 RMK A01 T00761030  RH  047%=      5-min Rain = 0
KBR1 191819Z 01010KT 08/M03 A303 RMK A01 T00761027  RH  048%=      5-min Rain = 0
KBR1 191820Z 01010KT 08/M03 A303 RMK A01 T00761030  RH  047%=      5-min Rain = 0
KBR1 191821Z 01010KT 08/M03 A303 RMK A01 T00751033  RH  046%=      5-min Rain = 0
KBR1 191822Z 01013KT 07/M03 A303 RMK A01 T00741031  RH  047%=      5-min Rain = 0
KBR1 191823Z 01011KT 07/M03 A303 RMK A01 T00741028  RH  048%=      5-min Rain = 0
KBR1 191824Z 01010KT 08/M03 A303 RMK A01 T00751030  RH  047%=      5-min Rain = 0
KBR1 191825Z 02009KT 08/M03 A303 RMK A01 T00751027  RH  048%=      5-min Rain = 0
KBR1 191826Z 01008KT 08/M03 A303 RMK A01 T00761029  RH  047%=      5-min Rain = 0
KBR1 191827Z 35012KT 08/M03 A303 RMK A01 T00751031  RH  047%=      5-min Rain = 0
KBR1 191828Z 00009KT 08/M03 A303 RMK A01 T00751032  RH  047%=      5-min Rain = 0
KBR1 191829Z 35009KT 08/M03 A303 RMK A01 T00751031  RH  047%=      5-min Rain = 0
KBR1 191830Z 35010KT 08/M03 A303 RMK A01 T00771029  RH  047%=      5-min Rain = 0
KBR1 191831Z 34006KT 08/M03 A303 RMK A01 T00771029  RH  047%=      5-min Rain = 0
KBR1 191832Z 36006KT 08/M03 A303 RMK A01 T00781027  RH  047%=      5-min Rain = 0
KBR1 191833Z 01008KT 08/M03 A303 RMK A01 T00791029  RH  046%=      5-min Rain = 0
KBR1 191834Z 02008KT 08/M03 A303 RMK A01 T00791028  RH  047%=      5-min Rain = 0
KBR1 191835Z 02009KT 08/M03 A303 RMK A01 T00791026  RH  048%=      5-min Rain = 0
KBR1 191836Z 35010KT 08/M02 A303 RMK A01 T00801023  RH  048%=      5-min Rain = 0
KBR1 191837Z 35011KT 08/M02 A303 RMK A01 T00811022  RH  048%=      5-min Rain = 0
KBR1 191838Z 34011KT 08/M02 A303 RMK A01 T00811023  RH  048%=      5-min Rain = 0
KBR1 191839Z 34006KT 08/M03 A303 RMK A01 T00781030  RH  047%=      5-min Rain = 0
KBR1 191840Z 01004KT 08/M03 A303 RMK A01 T00761027  RH  048%=      5-min Rain = 0
KBR1 191841Z 02006G11KT 08/M03 A303 RMK A01 T00771026  RH  048%=      5-min Rain = 0
KBR1 191842Z 00005KT 08/M03 A303 RMK A01 T00781028  RH  047%=      5-min Rain = 0
KBR1 191843Z 01008KT 08/M03 A303 RMK A01 T00771027  RH  047%=      5-min Rain = 0
KBR1 191844Z 02007KT 08/M03 A303 RMK A01 T00791025  RH  048%=      5-min Rain = 0
KBR1 191845Z 36008KT 08/M03 A303 RMK A01 T00801026  RH  047%=      5-min Rain = 0
KBR1 191846Z 34011KT 08/M02 A303 RMK A01 T00811022  RH  048%=      5-min Rain = 0
KBR1 191847Z 35010KT 08/M03 A303 RMK A01 T00821025  RH  047%=      5-min Rain = 0
KBR1 191848Z 35008KT 08/M03 A303 RMK A01 T00801026  RH  047%=      5-min Rain = 0
KBR1 191849Z 34012KT 08/M03 A303 RMK A01 T00801026  RH  047%=      5-min Rain = 0
KBR1 191850Z 34011KT 08/M03 A303 RMK A01 T00801028  RH  046%=      5-min Rain = 0
KBR1 191851Z 34009KT 08/M03 A303 RMK A01 T00801032  RH  045%=      5-min Rain = 0
KBR1 191852Z 34007KT 08/M03 A303 RMK A01 T00781033  RH  045%=      5-min Rain = 0
KBR1 191853Z 35007KT 08/M03 A303 RMK A01 T00781030  RH  046%=      5-min Rain = 0
KBR1 191854Z 01007KT 08/M02 A303 RMK A01 T00811023  RH  048%=      5-min Rain = 0
KBR1 191855Z 00011KT 08/M03 A303 RMK A01 T00831027  RH  046%=      5-min Rain = 0
KBR1 191856Z 35014G20KT 08/M03 A303 RMK A01 T00821026  RH  046%=      5-min Rain = 0
KBR1 191857Z 35011KT 08/M03 A303 RMK A01 T00811030  RH  045%=      5-min Rain = 0
KBR1 191858Z 35013KT 08/M02 A303 RMK A01 T00811024  RH  047%=      5-min Rain = 0
KBR1 191859Z 34012KT 08/M03 A303 RMK A01 T00831026  RH  046%=      5-min Rain = 0
KBR1 191900Z 35008KT 08/M04 A303 RMK A01 T00801035  RH  044%=      5-min Rain = 0
KBR1 191901Z 35008KT 08/M03 A303 RMK A01 T00781034  RH  045%=      5-min Rain = 0
KBR1 191902Z 34008KT 08/M03 A303 RMK A01 T00781029  RH  047%=      5-min Rain = 0
KBR1 191903Z 33005KT 08/M03 A303 RMK A01 T00801030  RH  046%=      5-min Rain = 0
KBR1 191904Z 01008KT 08/M03 A303 RMK A01 T00801028  RH  046%=      5-min Rain = 0
KBR1 191905Z 01010KT 08/M03 A3029 RMK A01 T00811029  RH  046%=      5-min Rain = 0
KBR1 191906Z 01009KT 08/M03 A3029 RMK A01 T00811031  RH  045%=      5-min Rain = 0
KBR1 191907Z 02005KT 08/M03 A3029 RMK A01 T00781034  RH  045%=      5-min Rain = 0
KBR1 191908Z 02008KT 08/M03 A3029 RMK A01 T00771031  RH  046%=      5-min Rain = 0
KBR1 191909Z 00010KT 08/M03 A3029 RMK A01 T00811026  RH  047%=      5-min Rain = 0
KBR1 191910Z 02011KT 08/M03 A3029 RMK A01 T00811029  RH  046%=      5-min Rain = 0
KBR1 191911Z 03009KT 08/M03 A3029 RMK A01 T00811031  RH  045%=      5-min Rain = 0
KBR1 191912Z 36009KT 08/M03 A3029 RMK A01 T00801030  RH  046%=      5-min Rain = 0
KBR1 191913Z 35009KT 08/M03 A3029 RMK A01 T00821026  RH  046%=      5-min Rain = 0
KBR1 191914Z 35006KT 08/M03 A3029 RMK A01 T00821031  RH  045%=      5-min Rain = 0
KBR1 191915Z 33005KT 08/M03 A3029 RMK A01 T00811031  RH  045%=      5-min Rain = 0
KBR1 191916Z 36007KT 08/M03 A3029 RMK A01 T00801029  RH  046%=      5-min Rain = 0
KBR1 191917Z 35010KT 08/M03 A3029 RMK A01 T00811026  RH  047%=      5-min Rain = 0
KBR1 191918Z 35011KT 08/M03 A3029 RMK A01 T00831030  RH  045%=      5-min Rain = 0
KBR1 191919Z 35010KT 09/M03 A3029 RMK A01 T00851028  RH  045%=      5-min Rain = 0
KBR1 191920Z 34009KT 09/M03 A3029 RMK A01 T00861028  RH  045%=      5-min Rain = 0
KBR1 191921Z 34006KT 08/M03 A3029 RMK A01 T00831030  RH  045%=      5-min Rain = 0
KBR1 191922Z 33009KT 08/M03 A3029 RMK A01 T00821029  RH  045%=      5-min Rain = 0
KBR1 191923Z 34007KT 08/M03 A3029 RMK A01 T00821027  RH  046%=      5-min Rain = 0
KBR1 191924Z 34003KT 08/M03 A3029 RMK A01 T00821031  RH  045%=      5-min Rain = 0
KBR1 191925Z 33006KT 08/M03 A3029 RMK A01 T00811029  RH  046%=      5-min Rain = 0
KBR1 191926Z 34011G17KT 08/M03 A3029 RMK A01 T00811028  RH  046%=      5-min Rain = 0
KBR1 191927Z 33009KT 09/M03 A3029 RMK A01 T00851028  RH  045%=      5-min Rain = 0
KBR1 191928Z 35008KT 09/M03 A3029 RMK A01 T00851031  RH  044%=      5-min Rain = 0
KBR1 191929Z 35011KT 09/M03 A3028 RMK A01 T00851029  RH  044%=      5-min Rain = 0
KBR1 191930Z 34008KT 09/M03 A3029 RMK A01 T00851033  RH  043%=      5-min Rain = 0
KBR1 191931Z 32004KT 08/M04 A3028 RMK A01 T00831037  RH  043%=      5-min Rain = 0
KBR1 191932Z 34004KT 08/M04 A3028 RMK A01 T00811036  RH  044%=      5-min Rain = 0
KBR1 191933Z 00007KT 08/M03 A3028 RMK A01 T00821030  RH  045%=      5-min Rain = 0
KBR1 191934Z 02008KT 08/M03 A3028 RMK A01 T00831029  RH  045%=      5-min Rain = 0
KBR1 191935Z 01010KT 08/M03 A3028 RMK A01 T00831028  RH  045%=      5-min Rain = 0
KBR1 191936Z 36010KT 09/M03 A3028 RMK A01 T00851030  RH  044%=      5-min Rain = 0
KBR1 191937Z 35009KT 08/M03 A3028 RMK A01 T00841033  RH  043%=      5-min Rain = 0
KBR1 191938Z 35009KT 08/M03 A3028 RMK A01 T00841029  RH  045%=      5-min Rain = 0
KBR1 191939Z 34010KT 09/M03 A3028 RMK A01 T00861028  RH  044%=      5-min Rain = 0
KBR1 191940Z 35009KT 09/M03 A3028 RMK A01 T00871028  RH  044%=      5-min Rain = 0
KBR1 191941Z 35007KT 09/M03 A3028 RMK A01 T00871031  RH  044%=      5-min Rain = 0
KBR1 191942Z 34008KT 09/M03 A3028 RMK A01 T00861032  RH  044%=      5-min Rain = 0
KBR1 191943Z 33008KT 08/M03 A3027 RMK A01 T00841034  RH  043%=      5-min Rain = 0
KBR1 191944Z 32008KT 08/M03 A3027 RMK A01 T00841032  RH  044%=      5-min Rain = 0
KBR1 191945Z 36010KT 09/M03 A3027 RMK A01 T00861026  RH  045%=      5-min Rain = 0
KBR1 191946Z 36008KT 09/M03 A3027 RMK A01 T00881029  RH  044%=      5-min Rain = 0
KBR1 191947Z 35004KT 09/M03 A3027 RMK A01 T00871033  RH  043%=      5-min Rain = 0
KBR1 191948Z 35006KT 09/M03 A3027 RMK A01 T00851031  RH  044%=      5-min Rain = 0
KBR1 191949Z 33008KT 09/M03 A3027 RMK A01 T00871029  RH  044%=      5-min Rain = 0
KBR1 191950Z 34005KT 09/M03 A3027 RMK A01 T00881032  RH  043%=      5-min Rain = 0
KBR1 191951Z 33007KT 09/M03 A3027 RMK A01 T00871034  RH  042%=      5-min Rain = 0
KBR1 191952Z 34007KT 09/M03 A3027 RMK A01 T00861032  RH  043%=      5-min Rain = 0
KBR1 191953Z 01006KT 09/M03 A3027 RMK A01 T00861029  RH  044%=      5-min Rain = 0
KBR1 191954Z 36009KT 09/M03 A3027 RMK A01 T00871026  RH  045%=      5-min Rain = 0
KBR1 191955Z 35006KT 09/M03 A3027 RMK A01 T00891029  RH  043%=      5-min Rain = 0
KBR1 191956Z 36005KT 09/M04 A3027 RMK A01 T00881035  RH  041%=      5-min Rain = 0
KBR1 191957Z 36004KT 09/M04 A3026 RMK A01 T00871037  RH  041%=      5-min Rain = 0
KBR1 191958Z 31001KT 09/M04 A3026 RMK A01 T00861040  RH  041%=      5-min Rain = 0
KBR1 191959Z 30005KT 09/M04 A3026 RMK A01 T00861036  RH  042%=      5-min Rain = 0
KBR1 192000Z 30006KT 09/M04 A3026 RMK A01 T00871035  RH  042%=      5-min Rain = 0
KBR1 192001Z 29006KT 09/M04 A3026 RMK A01 T00871035  RH  042%=      5-min Rain = 0
KBR1 192002Z 30006KT 09/M04 A3026 RMK A01 T00871035  RH  042%=      5-min Rain = 0
KBR1 192003Z 33007G12KT 09/M03 A3026 RMK A01 T00871032  RH  043%=      5-min Rain = 0
KBR1 192004Z 33009KT 09/M03 A3026 RMK A01 T00891028  RH  044%=      5-min Rain = 0
KBR1 192005Z 33006KT 09/M03 A3026 RMK A01 T00891033  RH  042%=      5-min Rain = 0
KBR1 192006Z 00006KT 09/M03 A3026 RMK A01 T00891031  RH  043%=      5-min Rain = 0
KBR1 192007Z 35008KT 09/M03 A3026 RMK A01 T00891034  RH  042%=      5-min Rain = 0
KBR1 192008Z 34008KT 09/M04 A3025 RMK A01 T00891040  RH  040%=      5-min Rain = 0
KBR1 192009Z 35009KT 09/M04 A3025 RMK A01 T00891038  RH  041%=      5-min Rain = 0
KBR1 192010Z 36007KT 09/M04 A3025 RMK A01 T00891036  RH  041%=      5-min Rain = 0
KBR1 192011Z 01005KT 09/M04 A3025 RMK A01 T00881038  RH  041%=      5-min Rain = 0
KBR1 192012Z 35004KT 09/M04 A3025 RMK A01 T00891036  RH  041%=      5-min Rain = 0
KBR1 192013Z 33004KT 09/M04 A3025 RMK A01 T00891040  RH  040%=      5-min Rain = 0
KBR1 192014Z 01004KT 09/M04 A3025 RMK A01 T00891041  RH  040%=      5-min Rain = 0
KBR1 192015Z 02005KT 09/M04 A3025 RMK A01 T00891041  RH  040%=      5-min Rain = 0
KBR1 192016Z 00003KT 09/M04 A3025 RMK A01 T00891040  RH  040%=      5-min Rain = 0
KBR1 192017Z 00007KT 09/M04 A3025 RMK A01 T00891037  RH  041%=      5-min Rain = 0
KBR1 192018Z 01008KT 09/M03 A3025 RMK A01 T00901034  RH  042%=      5-min Rain = 0
KBR1 192019Z 01005KT 09/M04 A3024 RMK A01 T00901038  RH  040%=      5-min Rain = 0
KBR1 192020Z 36008KT 09/M04 A3024 RMK A01 T00891037  RH  041%=      5-min Rain = 0
KBR1 192021Z 00006KT 09/M04 A3024 RMK A01 T00891038  RH  041%=      5-min Rain = 0
KBR1 192022Z 00005KT 09/M04 A3024 RMK A01 T00881039  RH  040%=      5-min Rain = 0
KBR1 192023Z 35005KT 09/M04 A3024 RMK A01 T00881040  RH  040%=      5-min Rain = 0
KBR1 192024Z 36003KT 09/M04 A3024 RMK A01 T00891040  RH  040%=      5-min Rain = 0
KBR1 192025Z 06002KT 09/M04 A3024 RMK A01 T00881040  RH  040%=      5-min Rain = 0
KBR1 192026Z 07002KT 09/M04 A3024 RMK A01 T00891041  RH  040%=      5-min Rain = 0
KBR1 192027Z 05004KT 09/M04 A3024 RMK A01 T00891040  RH  040%=      5-min Rain = 0
KBR1 192028Z 06004KT 09/M04 A3024 RMK A01 T00891043  RH  039%=      5-min Rain = 0
KBR1 192029Z 09002KT 09/M04 A3024 RMK A01 T00881043  RH  039%=      5-min Rain = 0
KBR1 192030Z 00005KT 09/M04 A3024 RMK A01 T00891040  RH  040%=      5-min Rain = 0
KBR1 192031Z 00004KT 09/M04 A3024 RMK A01 T00901041  RH  039%=      5-min Rain = 0
KBR1 192032Z 03002KT 09/M04 A3023 RMK A01 T00901039  RH  040%=      5-min Rain = 0
KBR1 192033Z 05003KT 09/M03 A3023 RMK A01 T00931033  RH  041%=      5-min Rain = 0
KBR1 192034Z 04006KT 10/M03 A3023 RMK A01 T00951034  RH  040%=      5-min Rain = 0
KBR1 192035Z 03007KT 10/M03 A3023 RMK A01 T00951034  RH  040%=      5-min Rain = 0
KBR1 192036Z 03006KT 09/M04 A3023 RMK A01 T00941036  RH  040%=      5-min Rain = 0
KBR1 192037Z 02007KT 09/M04 A3023 RMK A01 T00941036  RH  040%=      5-min Rain = 0
KBR1 192038Z 02005KT 10/M04 A3023 RMK A01 T00951040  RH  039%=      5-min Rain = 0
KBR1 192039Z 02005KT 10/M03 A3023 RMK A01 T00951034  RH  040%=      5-min Rain = 0
KBR1 192040Z 00004KT 10/M03 A3023 RMK A01 T00961032  RH  040%=      5-min Rain = 0
KBR1 192041Z 32004KT 10/M04 A3023 RMK A01 T00991035  RH  039%=      5-min Rain = 0
KBR1 192042Z 30004KT 10/M04 A3023 RMK A01 T00991042  RH  037%=      5-min Rain = 0
KBR1 192043Z 29004KT 10/M05 A3023 RMK A01 T00981045  RH  036%=      5-min Rain = 0
KBR1 192044Z 29005KT 10/M04 A3023 RMK A01 T00961044  RH  037%=      5-min Rain = 0
KBR1 192045Z 27004KT 10/M05 A3023 RMK A01 T00951045  RH  037%=      5-min Rain = 0
KBR1 192046Z 29005KT 09/M05 A3023 RMK A01 T00941045  RH  037%=      5-min Rain = 0
KBR1 192047Z 31005KT 09/M05 A3023 RMK A01 T00931047  RH  037%=      5-min Rain = 0
KBR1 192048Z 31003KT 09/M04 A3023 RMK A01 T00931044  RH  038%=      5-min Rain = 0
KBR1 192049Z 28002KT 09/M05 A3023 RMK A01 T00931045  RH  038%=      5-min Rain = 0
KBR1 192050Z 27001KT 09/M05 A3023 RMK A01 T00931047  RH  037%=      5-min Rain = 0
KBR1 192051Z 27002KT 09/M05 A3023 RMK A01 T00921049  RH  036%=      5-min Rain = 0
KBR1 192052Z 26001KT 09/M05 A3022 RMK A01 T00921047  RH  037%=      5-min Rain = 0
KBR1 192053Z 26000KT 09/M05 A3022 RMK A01 T00941046  RH  037%=      5-min Rain = 0
KBR1 192054Z 35000KT 10/M05 A3022 RMK A01 T00971045  RH  037%=      5-min Rain = 0
KBR1 192055Z 34001KT 10/M04 A3022 RMK A01 T01001042  RH  036%=      5-min Rain = 0
KBR1 192056Z 32001KT 10/M04 A3022 RMK A01 T01001042  RH  036%=      5-min Rain = 0
KBR1 192057Z 34001KT 10/M05 A3022 RMK A01 T01011045  RH  035%=      5-min Rain = 0
KBR1 192058Z 32002KT 10/M05 A3022 RMK A01 T01011046  RH  035%=      5-min Rain = 0
KBR1 192059Z 31003KT 10/M05 A3022 RMK A01 T01001047  RH  035%=      5-min Rain = 0
KBR1 192100Z 32004KT 10/M05 A3022 RMK A01 T00991049  RH  035%=      5-min Rain = 0
KBR1 192101Z 33002KT 10/M05 A3022 RMK A01 T00971054  RH  034%=      5-min Rain = 0
KBR1 192102Z 31002KT 10/M05 A3022 RMK A01 T00961051  RH  035%=      5-min Rain = 0
KBR1 192103Z 30000KT 10/M06 A3022 RMK A01 T00961055  RH  034%=      5-min Rain = 0
KBR1 192104Z 00000KT 10/M05 A3022 RMK A01 T00971054  RH  034%=      5-min Rain = 0
KBR1 192105Z 11000KT 10/M06 A3022 RMK A01 T00981055  RH  034%=      5-min Rain = 0
KBR1 192106Z 10000KT 10/M06 A3022 RMK A01 T00991056  RH  033%=      5-min Rain = 0
KBR1 192107Z 14000KT 10/M06 A3022 RMK A01 T01001058  RH  032%=      5-min Rain = 0
KBR1 192108Z 06001KT 10/M06 A3022 RMK A01 T01011057  RH  032%=      5-min Rain = 0
KBR1 192109Z 07002KT 10/M06 A3022 RMK A01 T01021055  RH  033%=      5-min Rain = 0
KBR1 192110Z 09002KT 10/M05 A3022 RMK A01 T01031049  RH  034%=      5-min Rain = 0
KBR1 192111Z 01001KT 10/M05 A3022 RMK A01 T01031051  RH  033%=      5-min Rain = 0
KBR1 192112Z 35003KT 10/M05 A3022 RMK A01 T01031053  RH  033%=      5-min Rain = 0
KBR1 192113Z 00004KT 10/M05 A3022 RMK A01 T01021054  RH  033%=      5-min Rain = 0
KBR1 192114Z 00004KT 10/M05 A3022 RMK A01 T01011053  RH  033%=      5-min Rain = 0
KBR1 192115Z 01003KT 10/M06 A3022 RMK A01 T00991056  RH  033%=      5-min Rain = 0
KBR1 192116Z 04003KT 10/M06 A3022 RMK A01 T00981056  RH  033%=      5-min Rain = 0
KBR1 192117Z 05002KT 10/M06 A3022 RMK A01 T00971055  RH  034%=      5-min Rain = 0
KBR1 192118Z 05002KT 10/M06 A3022 RMK A01 T00981056  RH  033%=      5-min Rain = 0
KBR1 192119Z 08002KT 10/M06 A3022 RMK A01 T00981055  RH  033%=      5-min Rain = 0
KBR1 192120Z 09002KT 10/M06 A3022 RMK A01 T00991056  RH  033%=      5-min Rain = 0
KBR1 192121Z 03002KT 10/M05 A3022 RMK A01 T00991054  RH  034%=      5-min Rain = 0
KBR1 192122Z 02004KT 10/M05 A3022 RMK A01 T01011050  RH  034%=      5-min Rain = 0
KBR1 192123Z 02003KT 10/M05 A3022 RMK A01 T01011054  RH  033%=      5-min Rain = 0
KBR1 192124Z 03002KT 10/M05 A3022 RMK A01 T01001051  RH  034%=      5-min Rain = 0
KBR1 192125Z 01003KT 10/M05 A3022 RMK A01 T01001054  RH  033%=      5-min Rain = 0
KBR1 192126Z 01002KT 10/M06 A3022 RMK A01 T00991057  RH  033%=      5-min Rain = 0
KBR1 192127Z 02002KT 10/M06 A3022 RMK A01 T00971056  RH  034%=      5-min Rain = 0
KBR1 192128Z 01002KT 10/M05 A3022 RMK A01 T00981050  RH  035%=      5-min Rain = 0
KBR1 192129Z 32001KT 10/M05 A3022 RMK A01 T00991048  RH  035%=      5-min Rain = 0
KBR1 192130Z 27005KT 10/M05 A3022 RMK A01 T01021048  RH  035%=      5-min Rain = 0
KBR1 192131Z 27004KT 10/M05 A3022 RMK A01 T01031048  RH  034%=      5-min Rain = 0
KBR1 192132Z 23003KT 10/M05 A3022 RMK A01 T01021054  RH  033%=      5-min Rain = 0
KBR1 192133Z 20002KT 10/M06 A3022 RMK A01 T01011055  RH  033%=      5-min Rain = 0
KBR1 192134Z 19001KT 10/M05 A3022 RMK A01 T01001053  RH  034%=      5-min Rain = 0
KBR1 192135Z 24001KT 10/M05 A3022 RMK A01 T01021048  RH  034%=      5-min Rain = 0
KBR1 192136Z 25000KT 10/M05 A3022 RMK A01 T01041051  RH  033%=      5-min Rain = 0
KBR1 192137Z 34001KT 11/M05 A3022 RMK A01 T01051053  RH  033%=      5-min Rain = 0
KBR1 192138Z 33002KT 11/M05 A3022 RMK A01 T01061050  RH  033%=      5-min Rain = 0
KBR1 192139Z 34002KT 11/M05 A3022 RMK A01 T01051052  RH  033%=      5-min Rain = 0
KBR1 192140Z 36003KT 10/M05 A3022 RMK A01 T01041050  RH  033%=      5-min Rain = 0
KBR1 192141Z 36002KT 10/M05 A3022 RMK A01 T01031053  RH  033%=      5-min Rain = 0
KBR1 192142Z 35002KT 10/M05 A3022 RMK A01 T01021053  RH  033%=      5-min Rain = 0
KBR1 192143Z 35001KT 10/M05 A3022 RMK A01 T01011053  RH  033%=      5-min Rain = 0
KBR1 192144Z 07002KT 10/M05 A3022 RMK A01 T01011052  RH  034%=      5-min Rain = 0
KBR1 192145Z 13002KT 10/M05 A3022 RMK A01 T01011050  RH  034%=      5-min Rain = 0
KBR1 192146Z 15003KT 10/M05 A3022 RMK A01 T01021048  RH  034%=      5-min Rain = 0
KBR1 192147Z 16004KT 10/M05 A3022 RMK A01 T01041049  RH  034%=      5-min Rain = 0
KBR1 192148Z 14005KT 10/M05 A3022 RMK A01 T01031049  RH  034%=      5-min Rain = 0
KBR1 192149Z 16005KT 10/M05 A3022 RMK A01 T01031047  RH  034%=      5-min Rain = 0
KBR1 192150Z 15006KT 10/M05 A3022 RMK A01 T01041046  RH  034%=      5-min Rain = 0
KBR1 192151Z 15006KT 11/M05 A3022 RMK A01 T01051047  RH  034%=      5-min Rain = 0
KBR1 192152Z 16006KT 11/M05 A3022 RMK A01 T01051050  RH  033%=      5-min Rain = 0
KBR1 192153Z 15006KT 10/M05 A3022 RMK A01 T01021053  RH  033%=      5-min Rain = 0
KBR1 192154Z 13005KT 10/M05 A3022 RMK A01 T01011051  RH  034%=      5-min Rain = 0
KBR1 192155Z 16005KT 10/M05 A3022 RMK A01 T01011050  RH  034%=      5-min Rain = 0
KBR1 192156Z 15005KT 10/M05 A3022 RMK A01 T01011051  RH  034%=      5-min Rain = 0
KBR1 192157Z 15005KT 10/M05 A3022 RMK A01 T01011053  RH  034%=      5-min Rain = 0
KBR1 192158Z 13004KT 10/M05 A3022 RMK A01 T01011050  RH  034%=      5-min Rain = 0
KBR1 192159Z 13002KT 10/M05 A3022 RMK A01 T01021048  RH  034%=      5-min Rain = 0
KBR1 192200Z 17003KT 10/M05 A3022 RMK A01 T01021052  RH  033%=      5-min Rain = 0
KBR1 192201Z 18002KT 10/M06 A3022 RMK A01 T01021056  RH  033%=      5-min Rain = 0
KBR1 192202Z 19003KT 10/M05 A3022 RMK A01 T01021054  RH  033%=      5-min Rain = 0
KBR1 192203Z 16002KT 10/M06 A3022 RMK A01 T01021055  RH  033%=      5-min Rain = 0
KBR1 192204Z 21002KT 10/M05 A3022 RMK A01 T01041050  RH  034%=      5-min Rain = 0
KBR1 192205Z 22003KT 11/M05 A3022 RMK A01 T01061051  RH  033%=      5-min Rain = 0
KBR1 192206Z 23004KT 11/M05 A3022 RMK A01 T01071050  RH  033%=      5-min Rain = 0
KBR1 192207Z 22004KT 11/M05 A3022 RMK A01 T01061053  RH  032%=      5-min Rain = 0
KBR1 192208Z 20003KT 10/M05 A3022 RMK A01 T01041053  RH  033%=      5-min Rain = 0
KBR1 192209Z 22003KT 10/M05 A3022 RMK A01 T01041053  RH  033%=      5-min Rain = 0
KBR1 192210Z 19004KT 10/M05 A3022 RMK A01 T01041052  RH  033%=      5-min Rain = 0
KBR1 192211Z 17005KT 11/M05 A3022 RMK A01 T01051050  RH  033%=      5-min Rain = 0
KBR1 192212Z 16006KT 11/M05 A3022 RMK A01 T01061049  RH  033%=      5-min Rain = 0
KBR1 192213Z 16007KT 11/M05 A3022 RMK A01 T01061051  RH  033%=      5-min Rain = 0
KBR1 192214Z 17006KT 11/M05 A3022 RMK A01 T01051051  RH  033%=      5-min Rain = 0
KBR1 192215Z 15007KT 10/M05 A3022 RMK A01 T01041051  RH  033%=      5-min Rain = 0
KBR1 192216Z 15006KT 10/M05 A3022 RMK A01 T01041050  RH  033%=      5-min Rain = 0
KBR1 192217Z 15006KT 10/M05 A3022 RMK A01 T01041051  RH  033%=      5-min Rain = 0
KBR1 192218Z 18008KT 11/M05 A3022 RMK A01 T01051049  RH  034%=      5-min Rain = 0
KBR1 192219Z 20006KT 11/M05 A3022 RMK A01 T01051053  RH  032%=      5-min Rain = 0
KBR1 192220Z 20004KT 10/M05 A3022 RMK A01 T01031054  RH  033%=      5-min Rain = 0
KBR1 192221Z 17004KT 10/M05 A3022 RMK A01 T01041050  RH  033%=      5-min Rain = 0
KBR1 192222Z 15005KT 11/M05 A3022 RMK A01 T01061052  RH  033%=      5-min Rain = 0
KBR1 192223Z 14008KT 11/M05 A3022 RMK A01 T01061051  RH  033%=      5-min Rain = 0
KBR1 192224Z 14005KT 10/M06 A3022 RMK A01 T01041056  RH  032%=      5-min Rain = 0
KBR1 192225Z 15004KT 10/M06 A3022 RMK A01 T01021056  RH  033%=      5-min Rain = 0
KBR1 192226Z 16001KT 10/M06 A3022 RMK A01 T01011056  RH  032%=      5-min Rain = 0
KBR1 192227Z 14004KT 10/M06 A3022 RMK A01 T01021055  RH  033%=      5-min Rain = 0
KBR1 192228Z 15003KT 10/M06 A3022 RMK A01 T01021056  RH  032%=      5-min Rain = 0
KBR1 192229Z 16006KT 10/M05 A3022 RMK A01 T01021054  RH  033%=      5-min Rain = 0
KBR1 192230Z 15005KT 10/M05 A3022 RMK A01 T01031053  RH  033%=      5-min Rain = 0
KBR1 192231Z 16004KT 10/M06 A3022 RMK A01 T01031055  RH  032%=      5-min Rain = 0
KBR1 192232Z 19005KT 10/M06 A3022 RMK A01 T01021056  RH  032%=      5-min Rain = 0
KBR1 192233Z 20005KT 10/M05 A3022 RMK A01 T01021054  RH  033%=      5-min Rain = 0
KBR1 192234Z 15004KT 10/M05 A3022 RMK A01 T01021053  RH  033%=      5-min Rain = 0
KBR1 192235Z 13005KT 10/M05 A3022 RMK A01 T01031053  RH  033%=      5-min Rain = 0
KBR1 192236Z 16008KT 10/M05 A3022 RMK A01 T01031051  RH  034%=      5-min Rain = 0
KBR1 192237Z 17007KT 10/M05 A3022 RMK A01 T01031048  RH  034%=      5-min Rain = 0
KBR1 192238Z 18008KT 10/M05 A3022 RMK A01 T01041048  RH  034%=      5-min Rain = 0
KBR1 192239Z 18007KT 10/M05 A3022 RMK A01 T01031051  RH  033%=      5-min Rain = 0
KBR1 192240Z 17005KT 10/M05 A3022 RMK A01 T01021053  RH  033%=      5-min Rain = 0
KBR1 192241Z 16006KT 10/M05 A3022 RMK A01 T01021049  RH  034%=      5-min Rain = 0
KBR1 192242Z 17006KT 10/M05 A3022 RMK A01 T01031052  RH  033%=      5-min Rain = 0
KBR1 192243Z 16006KT 10/M05 A3022 RMK A01 T01021054  RH  033%=      5-min Rain = 0
KBR1 192244Z 17006KT 10/M05 A3022 RMK A01 T01011054  RH  033%=      5-min Rain = 0
KBR1 192245Z 16004KT 10/M05 A3022 RMK A01 T01011053  RH  033%=      5-min Rain = 0
KBR1 192246Z 17004KT 10/M05 A3022 RMK A01 T01011053  RH  033%=      5-min Rain = 0
KBR1 192247Z 15005KT 10/M05 A3022 RMK A01 T01021050  RH  034%=      5-min Rain = 0
KBR1 192248Z 17008KT 10/M05 A3023 RMK A01 T01031049  RH  034%=      5-min Rain = 0
KBR1 192249Z 18008KT 10/M05 A3023 RMK A01 T01031049  RH  034%=      5-min Rain = 0
KBR1 192250Z 18006KT 10/M05 A3023 RMK A01 T01021050  RH  034%=      5-min Rain = 0
KBR1 192251Z 18005KT 10/M05 A3023 RMK A01 T01011050  RH  034%=      5-min Rain = 0
KBR1 192252Z 18005KT 10/M05 A3023 RMK A01 T01011048  RH  035%=      5-min Rain = 0
KBR1 192253Z 16004KT 10/M05 A3023 RMK A01 T01011049  RH  034%=      5-min Rain = 0
KBR1 192254Z 17007KT 10/M05 A3023 RMK A01 T01021047  RH  035%=      5-min Rain = 0
KBR1 192255Z 18006KT 10/M05 A3023 RMK A01 T01021048  RH  035%=      5-min Rain = 0
KBR1 192256Z 18006KT 10/M05 A3023 RMK A01 T01011051  RH  034%=      5-min Rain = 0
KBR1 192257Z 18006KT 10/M05 A3023 RMK A01 T01001051  RH  034%=      5-min Rain = 0
KBR1 192258Z 18005KT 10/M05 A3023 RMK A01 T01001050  RH  034%=      5-min Rain = 0
KBR1 192259Z 17005KT 10/M05 A3023 RMK A01 T01001052  RH  034%=      5-min Rain = 0
KBR1 192300Z 18005KT 10/M05 A3023 RMK A01 T01001050  RH  034%=      5-min Rain = 0
KBR1 192301Z 17005KT 10/M05 A3023 RMK A01 T01001050  RH  034%=      5-min Rain = 0
KBR1 192302Z 15006KT 10/M05 A3023 RMK A01 T01001049  RH  035%=      5-min Rain = 0
KBR1 192303Z 15006KT 10/M05 A3023 RMK A01 T01001047  RH  035%=      5-min Rain = 0
KBR1 192304Z 15006KT 10/M05 A3023 RMK A01 T01001046  RH  035%=      5-min Rain = 0
KBR1 192305Z 14006KT 10/M05 A3023 RMK A01 T01001045  RH  036%=      5-min Rain = 0
KBR1 192306Z 13004KT 10/M05 A3023 RMK A01 T01001050  RH  034%=      5-min Rain = 0
KBR1 192307Z 14005KT 10/M05 A3023 RMK A01 T00991050  RH  035%=      5-min Rain = 0
KBR1 192308Z 14005KT 10/M05 A3023 RMK A01 T00981049  RH  035%=      5-min Rain = 0
KBR1 192309Z 14006KT 10/M05 A3023 RMK A01 T00991049  RH  035%=      5-min Rain = 0
KBR1 192310Z 15005KT 10/M05 A3023 RMK A01 T00991049  RH  035%=      5-min Rain = 0
KBR1 192311Z 16007KT 10/M05 A3023 RMK A01 T00981049  RH  035%=      5-min Rain = 0
KBR1 192312Z 16006KT 10/M05 A3023 RMK A01 T00981051  RH  035%=      5-min Rain = 0
KBR1 192313Z 15006KT 10/M05 A3023 RMK A01 T00981052  RH  034%=      5-min Rain = 0
KBR1 192314Z 15005KT 10/M05 A3023 RMK A01 T00981051  RH  035%=      5-min Rain = 0
KBR1 192315Z 16005KT 10/M05 A3023 RMK A01 T00981051  RH  035%=      5-min Rain = 0
KBR1 192316Z 16005KT 10/M05 A3023 RMK A01 T00971052  RH  035%=      5-min Rain = 0
KBR1 192317Z 16005KT 10/M05 A3023 RMK A01 T00971052  RH  035%=      5-min Rain = 0
KBR1 192318Z 16007KT 10/M05 A3023 RMK A01 T00971049  RH  035%=      5-min Rain = 0
KBR1 192319Z 16006KT 10/M05 A3023 RMK A01 T00971049  RH  035%=      5-min Rain = 0
KBR1 192320Z 14007KT 10/M05 A3023 RMK A01 T00971047  RH  036%=      5-min Rain = 0
KBR1 192321Z 14008KT 10/M05 A3023 RMK A01 T00961048  RH  036%=      5-min Rain = 0
KBR1 192322Z 15007KT 10/M05 A3023 RMK A01 T00951049  RH  036%=      5-min Rain = 0
KBR1 192323Z 14006KT 10/M05 A3022 RMK A01 T00951049  RH  036%=      5-min Rain = 0
KBR1 192324Z 15007KT 09/M05 A3022 RMK A01 T00941047  RH  036%=      5-min Rain = 0
KBR1 192325Z 16007KT 10/M05 A3022 RMK A01 T00951046  RH  037%=      5-min Rain = 0
KBR1 192326Z 16006KT 09/M05 A3022 RMK A01 T00941046  RH  037%=      5-min Rain = 0
KBR1 192327Z 16007KT 09/M05 A3022 RMK A01 T00941045  RH  037%=      5-min Rain = 0
KBR1 192328Z 17006KT 09/M05 A3023 RMK A01 T00941047  RH  037%=      5-min Rain = 0
KBR1 192329Z 17007KT 09/M05 A3023 RMK A01 T00931047  RH  037%=      5-min Rain = 0
KBR1 192330Z 17006KT 09/M05 A3023 RMK A01 T00931046  RH  037%=      5-min Rain = 0
KBR1 192331Z 16006KT 09/M05 A3023 RMK A01 T00921046  RH  037%=      5-min Rain = 0
KBR1 192332Z 16007KT 09/M05 A3023 RMK A01 T00921047  RH  037%=      5-min Rain = 0
KBR1 192333Z 15005KT 09/M05 A3023 RMK A01 T00921048  RH  037%=      5-min Rain = 0
KBR1 192334Z 16005KT 09/M05 A3023 RMK A01 T00911046  RH  037%=      5-min Rain = 0
KBR1 192335Z 16006KT 09/M05 A3023 RMK A01 T00911047  RH  037%=      5-min Rain = 0
KBR1 192336Z 16006KT 09/M05 A3023 RMK A01 T00911047  RH  038%=      5-min Rain = 0
KBR1 192337Z 16005KT 09/M05 A3023 RMK A01 T00901046  RH  038%=      5-min Rain = 0
KBR1 192338Z 15005KT 09/M05 A3023 RMK A01 T00891046  RH  038%=      5-min Rain = 0
KBR1 192339Z 15006KT 09/M05 A3023 RMK A01 T00881045  RH  039%=      5-min Rain = 0
KBR1 192340Z 15005KT 09/M04 A3023 RMK A01 T00881043  RH  039%=      5-min Rain = 0
KBR1 192341Z 15006KT 09/M04 A3023 RMK A01 T00871043  RH  039%=      5-min Rain = 0
KBR1 192342Z 14006KT 09/M04 A3023 RMK A01 T00861043  RH  040%=      5-min Rain = 0
KBR1 192343Z 14006KT 09/M04 A3023 RMK A01 T00851042  RH  040%=      5-min Rain = 0
KBR1 192344Z 14007KT 08/M04 A3023 RMK A01 T00841042  RH  041%=      5-min Rain = 0
KBR1 192345Z 14006KT 08/M04 A3023 RMK A01 T00831041  RH  041%=      5-min Rain = 0
KBR1 192346Z 13005KT 08/M04 A3023 RMK A01 T00811041  RH  042%=      5-min Rain = 0
KBR1 192347Z 13005KT 08/M04 A3023 RMK A01 T00801041  RH  042%=      5-min Rain = 0
KBR1 192348Z 13005KT 08/M04 A3023 RMK A01 T00791040  RH  043%=      5-min Rain = 0
KBR1 192349Z 13005KT 08/M04 A3023 RMK A01 T00781040  RH  043%=      5-min Rain = 0
KBR1 192350Z 13006KT 08/M04 A3023 RMK A01 T00771041  RH  043%=      5-min Rain = 0
KBR1 192351Z 13006KT 08/M04 A3023 RMK A01 T00761040  RH  044%=      5-min Rain = 0
KBR1 192352Z 14006KT 07/M04 A3023 RMK A01 T00741039  RH  044%=      5-min Rain = 0
KBR1 192353Z 13006KT 07/M04 A3023 RMK A01 T00731040  RH  044%=      5-min Rain = 0
KBR1 192354Z 13006KT 07/M04 A3023 RMK A01 T00721041  RH  045%=      5-min Rain = 0
KBR1 192355Z 13006KT 07/M04 A3023 RMK A01 T00701041  RH  045%=      5-min Rain = 0
KBR1 192356Z 13007KT 07/M04 A3023 RMK A01 T00691040  RH  046%=      5-min Rain = 0
KBR1 192357Z 13007KT 07/M04 A3023 RMK A01 T00671040  RH  046%=      5-min Rain = 0
KBR1 192358Z 13007KT 07/M04 A3023 RMK A01 T00661040  RH  047%=      5-min Rain = 0
KBR1 192359Z 12007KT 07/M04 A3023 RMK A01 T00661039  RH  047%=      5-min Rain = 0
KBR1 200000Z 12007KT 07/M04 A3023 RMK A01 T00651039  RH  047%=      5-min Rain = 0
KBR1 200001Z 12007KT 06/M04 A3022 RMK A01 T00631040  RH  048%=      5-min Rain = 0
KBR1 200002Z 12007KT 06/M04 A3022 RMK A01 T00621040  RH  048%=      5-min Rain = 0
KBR1 200003Z 12007KT 06/M04 A3022 RMK A01 T00601041  RH  048%=      5-min Rain = 0
KBR1 200004Z 12008KT 06/M04 A3022 RMK A01 T00591040  RH  049%=      5-min Rain = 0
KBR1 200005Z 12008KT 06/M04 A3022 RMK A01 T00581040  RH  049%=      5-min Rain = 0
KBR1 200006Z 12008KT 06/M04 A3022 RMK A01 T00561041  RH  050%=      5-min Rain = 0
KBR1 200007Z 12008KT 05/M04 A3022 RMK A01 T00541040  RH  050%=      5-min Rain = 0
KBR1 200008Z 12008KT 05/M04 A3022 RMK A01 T00531040  RH  051%=      5-min Rain = 0
KBR1 200009Z 12008KT 05/M04 A3022 RMK A01 T00511040  RH  052%=      5-min Rain = 0
KBR1 200010Z 12008KT 05/M04 A3022 RMK A01 T00511040  RH  052%=      5-min Rain = 0
KBR1 200011Z 12008KT 05/M04 A3022 RMK A01 T00501039  RH  052%=      5-min Rain = 0
KBR1 200012Z 12008KT 05/M04 A3022 RMK A01 T00501039  RH  053%=      5-min Rain = 0
KBR1 200013Z 12008KT 05/M04 A3022 RMK A01 T00481040  RH  053%=      5-min Rain = 0
KBR1 200014Z 12008KT 05/M04 A3022 RMK A01 T00471040  RH  053%=      5-min Rain = 0
KBR1 200015Z 12009KT 05/M04 A3022 RMK A01 T00461040  RH  054%=      5-min Rain = 0
KBR1 200016Z 11009KT 05/M04 A3022 RMK A01 T00451040  RH  054%=      5-min Rain = 0
KBR1 200017Z 11009KT 05/M04 A3022 RMK A01 T00451039  RH  054%=      5-min Rain = 0
KBR1 200018Z 12009KT 04/M04 A3022 RMK A01 T00441039  RH  055%=      5-min Rain = 0
KBR1 200019Z 12009KT 04/M04 A3022 RMK A01 T00431040  RH  055%=      5-min Rain = 0
KBR1 200020Z 12009KT 04/M04 A3022 RMK A01 T00431040  RH  055%=      5-min Rain = 0
KBR1 200021Z 12009KT 04/M04 A3022 RMK A01 T00421040  RH  055%=      5-min Rain = 0
KBR1 200022Z 12010KT 04/M04 A3022 RMK A01 T00421040  RH  055%=      5-min Rain = 0
KBR1 200023Z 12009KT 04/M04 A3022 RMK A01 T00421040  RH  055%=      5-min Rain = 0
KBR1 200024Z 12009KT 04/M04 A3021 RMK A01 T00421040  RH  055%=      5-min Rain = 0
KBR1 200025Z 12009KT 04/M04 A3021 RMK A01 T00421040  RH  055%=      5-min Rain = 0
KBR1 200026Z 11009KT 04/M04 A3021 RMK A01 T00421040  RH  055%=      5-min Rain = 0
KBR1 200027Z 11009KT 04/M04 A3021 RMK A01 T00421040  RH  055%=      5-min Rain = 0
KBR1 200028Z 11009KT 04/M04 A3021 RMK A01 T00421040  RH  055%=      5-min Rain = 0
KBR1 200029Z 11009KT 04/M04 A3021 RMK A01 T00411041  RH  055%=      5-min Rain = 0
KBR1 200030Z 11010KT 04/M04 A3021 RMK A01 T00401041  RH  055%=      5-min Rain = 0
KBR1 200031Z 12010KT 04/M04 A3021 RMK A01 T00401041  RH  056%=      5-min Rain = 0
KBR1 200032Z 12010KT 04/M04 A3021 RMK A01 T00391041  RH  056%=      5-min Rain = 0
KBR1 200033Z 12010KT 04/M04 A3021 RMK A01 T00391042  RH  056%=      5-min Rain = 0
KBR1 200034Z 11010KT 04/M04 A3021 RMK A01 T00391041  RH  056%=      5-min Rain = 0
KBR1 200035Z 11009KT 04/M04 A3021 RMK A01 T00391042  RH  056%=      5-min Rain = 0
KBR1 200036Z 11009KT 04/M04 A3021 RMK A01 T00391042  RH  056%=      5-min Rain = 0
KBR1 200037Z 11009KT 04/M04 A3021 RMK A01 T00391042  RH  056%=      5-min Rain = 0
KBR1 200038Z 11009KT 04/M04 A3021 RMK A01 T00401041  RH  055%=      5-min Rain = 0
KBR1 200039Z 11009KT 04/M04 A3021 RMK A01 T00401041  RH  055%=      5-min Rain = 0
KBR1 200040Z 11009KT 04/M04 A302 RMK A01 T00401041  RH  056%=      5-min Rain = 0
KBR1 200041Z 11009KT 04/M04 A302 RMK A01 T00401041  RH  056%=      5-min Rain = 0
KBR1 200042Z 11009KT 04/M04 A302 RMK A01 T00401041  RH  056%=      5-min Rain = 0
KBR1 200043Z 11009KT 04/M04 A302 RMK A01 T00391042  RH  056%=      5-min Rain = 0
KBR1 200044Z 11009KT 04/M04 A302 RMK A01 T00391041  RH  056%=      5-min Rain = 0
KBR1 200045Z 11010KT 04/M04 A302 RMK A01 T00391041  RH  056%=      5-min Rain = 0
KBR1 200046Z 11010KT 04/M04 A302 RMK A01 T00391042  RH  056%=      5-min Rain = 0
KBR1 200047Z 11010KT 04/M04 A302 RMK A01 T00381042  RH  056%=      5-min Rain = 0
KBR1 200048Z 11010KT 04/M04 A302 RMK A01 T00381042  RH  056%=      5-min Rain = 0
KBR1 200049Z 12009KT 04/M04 A302 RMK A01 T00381042  RH  056%=      5-min Rain = 0
KBR1 200050Z 12009KT 04/M04 A302 RMK A01 T00381042  RH  056%=      5-min Rain = 0
KBR1 200051Z 12009KT 04/M04 A302 RMK A01 T00381042  RH  056%=      5-min Rain = 0
KBR1 200052Z 11009KT 04/M04 A302 RMK A01 T00381042  RH  056%=      5-min Rain = 0
KBR1 200053Z 12009KT 04/M04 A302 RMK A01 T00381042  RH  056%=      5-min Rain = 0
KBR1 200054Z 11009KT 04/M04 A302 RMK A01 T00381042  RH  056%=      5-min Rain = 0
KBR1 200055Z 12009KT 04/M04 A302 RMK A01 T00381042  RH  056%=      5-min Rain = 0
KBR1 200056Z 12009KT 04/M04 A302 RMK A01 T00381042  RH  056%=      5-min Rain = 0
KBR1 200057Z 11009KT 04/M04 A302 RMK A01 T00371042  RH  056%=      5-min Rain = 0
KBR1 200058Z 11009KT 04/M04 A302 RMK A01 T00371042  RH  056%=      5-min Rain = 0
KBR1 200059Z 12009KT 04/M04 A302 RMK A01 T00371042  RH  057%=      5-min Rain = 0
KBR1 200100Z 12009KT 04/M04 A302 RMK A01 T00371042  RH  057%=      5-min Rain = 0
KBR1 200101Z 12009KT 04/M04 A3021 RMK A01 T00361042  RH  057%=      5-min Rain = 0
KBR1 200102Z 12009KT 04/M04 A3021 RMK A01 T00361042  RH  057%=      5-min Rain = 0
KBR1 200103Z 12009KT 04/M04 A3021 RMK A01 T00361042  RH  057%=      5-min Rain = 0
KBR1 200104Z 12009KT 04/M04 A3021 RMK A01 T00351043  RH  057%=      5-min Rain = 0
KBR1 200105Z 12009KT 04/M04 A3021 RMK A01 T00351043  RH  057%=      5-min Rain = 0
KBR1 200106Z 12009KT 04/M04 A3021 RMK A01 T00351043  RH  057%=      5-min Rain = 0
KBR1 200107Z 12009KT 04/M04 A3021 RMK A01 T00351043  RH  057%=      5-min Rain = 0
KBR1 200108Z 12008KT 04/M04 A3021 RMK A01 T00351043  RH  057%=      5-min Rain = 0
KBR1 200109Z 12008KT 03/M04 A3021 RMK A01 T00341043  RH  057%=      5-min Rain = 0
KBR1 200110Z 12008KT 03/M04 A3022 RMK A01 T00341043  RH  057%=      5-min Rain = 0
KBR1 200111Z 12008KT 03/M04 A3022 RMK A01 T00331043  RH  057%=      5-min Rain = 0
KBR1 200112Z 12008KT 03/M04 A3022 RMK A01 T00331043  RH  058%=      5-min Rain = 0
KBR1 200113Z 12008KT 03/M04 A3022 RMK A01 T00321043  RH  058%=      5-min Rain = 0
KBR1 200114Z 12008KT 03/M04 A3022 RMK A01 T00311043  RH  058%=      5-min Rain = 0
KBR1 200115Z 12008KT 03/M04 A3022 RMK A01 T00311043  RH  058%=      5-min Rain = 0
KBR1 200116Z 12008KT 03/M04 A3023 RMK A01 T00311043  RH  058%=      5-min Rain = 0
KBR1 200117Z 12008KT 03/M04 A3023 RMK A01 T00301043  RH  058%=      5-min Rain = 0
KBR1 200118Z 12008KT 03/M04 A3023 RMK A01 T00301043  RH  059%=      5-min Rain = 0
KBR1 200119Z 12007KT 03/M04 A3023 RMK A01 T00301043  RH  058%=      5-min Rain = 0
KBR1 200120Z 12007KT 03/M04 A3023 RMK A01 T00301043  RH  058%=      5-min Rain = 0
KBR1 200121Z 12007KT 03/M04 A3023 RMK A01 T00301043  RH  059%=      5-min Rain = 0
KBR1 200122Z 12007KT 03/M04 A3023 RMK A01 T00301043  RH  059%=      5-min Rain = 0
KBR1 200123Z 12007KT 03/M04 A3023 RMK A01 T00281044  RH  059%=      5-min Rain = 0
KBR1 200124Z 12007KT 03/M05 A3023 RMK A01 T00271045  RH  059%=      5-min Rain = 0
KBR1 200125Z 13007KT 03/M05 A3023 RMK A01 T00251046  RH  060%=      5-min Rain = 0
KBR1 200126Z 13007KT 02/M05 A3023 RMK A01 T00241045  RH  060%=      5-min Rain = 0
KBR1 200127Z 13007KT 02/M05 A3022 RMK A01 T00241045  RH  060%=      5-min Rain = 0
KBR1 200128Z 13007KT 02/M05 A3022 RMK A01 T00231045  RH  061%=      5-min Rain = 0
KBR1 200129Z 13007KT 02/M04 A3022 RMK A01 T00231044  RH  061%=      5-min Rain = 0
KBR1 200130Z 13007KT 02/M04 A3023 RMK A01 T00231044  RH  061%=      5-min Rain = 0
KBR1 200131Z 13007KT 02/M04 A3023 RMK A01 T00241044  RH  061%=      5-min Rain = 0
KBR1 200132Z 13007KT 03/M04 A3023 RMK A01 T00251043  RH  061%=      5-min Rain = 0
KBR1 200133Z 12007KT 03/M04 A3023 RMK A01 T00261043  RH  061%=      5-min Rain = 0
KBR1 200134Z 13007KT 03/M04 A3023 RMK A01 T00271043  RH  060%=      5-min Rain = 0
KBR1 200135Z 13007KT 03/M04 A3023 RMK A01 T00271043  RH  060%=      5-min Rain = 0
KBR1 200136Z 13007KT 03/M04 A3023 RMK A01 T00261044  RH  060%=      5-min Rain = 0
KBR1 200137Z 13007KT 03/M04 A3023 RMK A01 T00251044  RH  060%=      5-min Rain = 0
KBR1 200138Z 13008KT 02/M04 A3023 RMK A01 T00241044  RH  061%=      5-min Rain = 0
KBR1 200139Z 13008KT 02/M04 A3023 RMK A01 T00241043  RH  061%=      5-min Rain = 0
KBR1 200140Z 13008KT 02/M04 A3022 RMK A01 T00241043  RH  061%=      5-min Rain = 0
KBR1 200141Z 13007KT 02/M04 A3022 RMK A01 T00241042  RH  062%=      5-min Rain = 0
KBR1 200142Z 13007KT 02/M04 A3022 RMK A01 T00241042  RH  062%=      5-min Rain = 0
KBR1 200143Z 12007KT 02/M04 A3022 RMK A01 T00241042  RH  062%=      5-min Rain = 0
KBR1 200144Z 12007KT 02/M04 A3023 RMK A01 T00241042  RH  062%=      5-min Rain = 0
KBR1 200145Z 12007KT 03/M04 A3022 RMK A01 T00251042  RH  061%=      5-min Rain = 0
KBR1 200146Z 12008KT 03/M04 A3022 RMK A01 T00251042  RH  061%=      5-min Rain = 0
KBR1 200147Z 12008KT 02/M04 A3022 RMK A01 T00241043  RH  061%=      5-min Rain = 0
KBR1 200148Z 12008KT 02/M04 A3022 RMK A01 T00231043  RH  061%=      5-min Rain = 0
KBR1 200149Z 12008KT 02/M04 A3022 RMK A01 T00231043  RH  062%=      5-min Rain = 0
KBR1 200150Z 12008KT 02/M04 A3022 RMK A01 T00231043  RH  062%=      5-min Rain = 0
KBR1 200151Z 12008KT 02/M04 A3022 RMK A01 T00231043  RH  062%=      5-min Rain = 0
KBR1 200152Z 11007KT 02/M04 A3023 RMK A01 T00231043  RH  062%=      5-min Rain = 0
KBR1 200153Z 11007KT 02/M04 A3023 RMK A01 T00231043  RH  062%=      5-min Rain = 0
KBR1 200154Z 11007KT 03/M04 A3023 RMK A01 T00251043  RH  061%=      5-min Rain = 0
KBR1 200155Z 11007KT 03/M04 A3023 RMK A01 T00261043  RH  061%=      5-min Rain = 0
KBR1 200156Z 11006KT 03/M04 A3023 RMK A01 T00261043  RH  060%=      5-min Rain = 0
KBR1 200157Z 11007KT 03/M04 A3023 RMK A01 T00271043  RH  060%=      5-min Rain = 0
KBR1 200158Z 11007KT 03/M04 A3023 RMK A01 T00271043  RH  060%=      5-min Rain = 0
KBR1 200159Z 11007KT 03/M04 A3022 RMK A01 T00271043  RH  060%=      5-min Rain = 0
KBR1 200200Z 11008KT 03/M04 A3022 RMK A01 T00261043  RH  061%=      5-min Rain = 0
KBR1 200201Z 12008KT 02/M04 A3021 RMK A01 T00241043  RH  061%=      5-min Rain = 0
KBR1 200202Z 12009KT 02/M04 A3021 RMK A01 T00231043  RH  062%=      5-min Rain = 0
KBR1 200203Z 12009KT 02/M04 A302 RMK A01 T00231042  RH  062%=      5-min Rain = 0
KBR1 200204Z 12008KT 02/M04 A302 RMK A01 T00231042  RH  062%=      5-min Rain = 0
KBR1 200205Z 12008KT 02/M04 A3021 RMK A01 T00231042  RH  062%=      5-min Rain = 0
KBR1 200206Z 11008KT 02/M04 A3021 RMK A01 T00231042  RH  062%=      5-min Rain = 0
KBR1 200207Z 11008KT 02/M04 A3021 RMK A01 T00231042  RH  062%=      5-min Rain = 0
KBR1 200208Z 11008KT 02/M04 A3021 RMK A01 T00221042  RH  063%=      5-min Rain = 0
KBR1 200209Z 11009KT 02/M04 A3021 RMK A01 T00211042  RH  063%=      5-min Rain = 0
KBR1 200210Z 11009KT 02/M04 A3021 RMK A01 T00201042  RH  063%=      5-min Rain = 0
KBR1 200211Z 11009KT 02/M04 A302 RMK A01 T00191042  RH  064%=      5-min Rain = 0
KBR1 200212Z 12009KT 02/M04 A302 RMK A01 T00191042  RH  064%=      5-min Rain = 0
KBR1 200213Z 12009KT 02/M04 A3021 RMK A01 T00191042  RH  064%=      5-min Rain = 0
KBR1 200214Z 11008KT 02/M04 A3021 RMK A01 T00191042  RH  064%=      5-min Rain = 0
KBR1 200215Z 11008KT 02/M04 A3021 RMK A01 T00201042  RH  064%=      5-min Rain = 0
KBR1 200216Z 11008KT 02/M04 A3021 RMK A01 T00201042  RH  064%=      5-min Rain = 0
KBR1 200217Z 11009KT 02/M04 A3021 RMK A01 T00201042  RH  064%=      5-min Rain = 0
KBR1 200218Z 11009KT 02/M04 A3021 RMK A01 T00201042  RH  064%=      5-min Rain = 0
KBR1 200219Z 11009KT 02/M04 A3021 RMK A01 T00201041  RH  064%=      5-min Rain = 0
KBR1 200220Z 11009KT 02/M04 A3022 RMK A01 T00201041  RH  064%=      5-min Rain = 0
KBR1 200221Z 11008KT 02/M04 A3022 RMK A01 T00201042  RH  064%=      5-min Rain = 0
KBR1 200222Z 11008KT 02/M04 A3022 RMK A01 T00201042  RH  063%=      5-min Rain = 0
KBR1 200223Z 11008KT 02/M04 A3022 RMK A01 T00201042  RH  063%=      5-min Rain = 0
KBR1 200224Z 11008KT 02/M04 A3022 RMK A01 T00211042  RH  063%=      5-min Rain = 0
KBR1 200225Z 11008KT 02/M04 A3022 RMK A01 T00201042  RH  063%=      5-min Rain = 0
KBR1 200226Z 11009KT 02/M04 A3022 RMK A01 T00201042  RH  064%=      5-min Rain = 0
KBR1 200227Z 11009KT 02/M04 A3022 RMK A01 T00201041  RH  064%=      5-min Rain = 0
KBR1 200228Z 11009KT 02/M04 A3022 RMK A01 T00201042  RH  064%=      5-min Rain = 0
KBR1 200229Z 11009KT 02/M04 A3022 RMK A01 T00211042  RH  063%=      5-min Rain = 0
KBR1 200230Z 12009KT 02/M04 A3022 RMK A01 T00201042  RH  063%=      5-min Rain = 0
KBR1 200231Z 12009KT 02/M04 A3022 RMK A01 T00201042  RH  064%=      5-min Rain = 0
KBR1 200232Z 12009KT 02/M04 A3022 RMK A01 T00191042  RH  064%=      5-min Rain = 0
KBR1 200233Z 12009KT 02/M04 A3022 RMK A01 T00181042  RH  064%=      5-min Rain = 0
KBR1 200234Z 12009KT 02/M04 A3022 RMK A01 T00181042  RH  064%=      5-min Rain = 0
KBR1 200235Z 12009KT 02/M04 A3022 RMK A01 T00191042  RH  064%=      5-min Rain = 0
KBR1 200236Z 12009KT 02/M04 A3022 RMK A01 T00191042  RH  064%=      5-min Rain = 0
KBR1 200237Z 12008KT 02/M04 A3022 RMK A01 T00191041  RH  064%=      5-min Rain = 0
KBR1 200238Z 12008KT 02/M04 A3022 RMK A01 T00181042  RH  064%=      5-min Rain = 0
KBR1 200239Z 12008KT 02/M04 A3022 RMK A01 T00171042  RH  065%=      5-min Rain = 0
KBR1 200240Z 12008KT 02/M04 A3022 RMK A01 T00161042  RH  065%=      5-min Rain = 0
KBR1 200241Z 12008KT 02/M04 A3022 RMK A01 T00161042  RH  065%=      5-min Rain = 0
KBR1 200242Z 12008KT 02/M04 A3022 RMK A01 T00151043  RH  065%=      5-min Rain = 0
KBR1 200243Z 12008KT 02/M04 A3022 RMK A01 T00151042  RH  066%=      5-min Rain = 0
KBR1 200244Z 12009KT 01/M04 A3021 RMK A01 T00141043  RH  066%=      5-min Rain = 0
KBR1 200245Z 11009KT 01/M04 A3021 RMK A01 T00141043  RH  066%=      5-min Rain = 0
KBR1 200246Z 12009KT 01/M04 A3021 RMK A01 T00141043  RH  066%=      5-min Rain = 0
KBR1 200247Z 12008KT 01/M04 A3021 RMK A01 T00131042  RH  066%=      5-min Rain = 0
KBR1 200248Z 12008KT 01/M04 A3022 RMK A01 T00131042  RH  067%=      5-min Rain = 0
KBR1 200249Z 12008KT 01/M04 A3022 RMK A01 T00131042  RH  067%=      5-min Rain = 0
KBR1 200250Z 12008KT 01/M04 A3022 RMK A01 T00131042  RH  067%=      5-min Rain = 0
KBR1 200251Z 12008KT 01/M04 A3022 RMK A01 T00131042  RH  067%=      5-min Rain = 0
KBR1 200252Z 12008KT 01/M04 A3021 RMK A01 T00131042  RH  067%=      5-min Rain = 0
KBR1 200253Z 12008KT 01/M04 A3021 RMK A01 T00131042  RH  067%=      5-min Rain = 0
KBR1 200254Z 12008KT 01/M04 A3021 RMK A01 T00121043  RH  067%=      5-min Rain = 0
KBR1 200255Z 12008KT 01/M04 A3022 RMK A01 T00111043  RH  067%=      5-min Rain = 0
KBR1 200256Z 12007KT 01/M04 A3022 RMK A01 T00101044  RH  067%=      5-min Rain = 0
KBR1 200257Z 12007KT 01/M04 A3022 RMK A01 T00101044  RH  067%=      5-min Rain = 0
KBR1 200258Z 12007KT 01/M04 A3022 RMK A01 T00091044  RH  068%=      5-min Rain = 0
KBR1 200259Z 12007KT 01/M04 A3022 RMK A01 T00081044  RH  068%=      5-min Rain = 0
KBR1 200300Z 12007KT 01/M04 A3022 RMK A01 T00081044  RH  068%=      5-min Rain = 0
KBR1 200301Z 13007KT 01/M05 A3022 RMK A01 T00071045  RH  068%=      5-min Rain = 0
KBR1 200302Z 13007KT 01/M05 A3021 RMK A01 T00061046  RH  068%=      5-min Rain = 0
KBR1 200303Z 13007KT 01/M05 A3021 RMK A01 T00051046  RH  069%=      5-min Rain = 0
KBR1 200304Z 13007KT 01/M05 A3021 RMK A01 T00051045  RH  069%=      5-min Rain = 0
KBR1 200305Z 13007KT 01/M05 A3021 RMK A01 T00051045  RH  069%=      5-min Rain = 0
KBR1 200306Z 13007KT 01/M05 A3021 RMK A01 T00061045  RH  069%=      5-min Rain = 0
KBR1 200307Z 13007KT 01/M04 A3021 RMK A01 T00061044  RH  069%=      5-min Rain = 0
KBR1 200308Z 13007KT 01/M04 A3021 RMK A01 T00051044  RH  069%=      5-min Rain = 0
KBR1 200309Z 13007KT 01/M04 A3021 RMK A01 T00061044  RH  069%=      5-min Rain = 0
KBR1 200310Z 13007KT 01/M04 A3021 RMK A01 T00061044  RH  069%=      5-min Rain = 0
KBR1 200311Z 13007KT 01/M04 A3021 RMK A01 T00061044  RH  069%=      5-min Rain = 0
KBR1 200312Z 12007KT 01/M04 A3021 RMK A01 T00061044  RH  069%=      5-min Rain = 0
KBR1 200313Z 12007KT 01/M04 A3021 RMK A01 T00071044  RH  069%=      5-min Rain = 0
KBR1 200314Z 12007KT 01/M04 A3021 RMK A01 T00061044  RH  069%=      5-min Rain = 0
KBR1 200315Z 12007KT 01/M04 A3021 RMK A01 T00061044  RH  069%=      5-min Rain = 0
KBR1 200316Z 13007KT 01/M04 A3021 RMK A01 T00061044  RH  069%=      5-min Rain = 0
KBR1 200317Z 13006KT 01/M04 A3021 RMK A01 T00061044  RH  069%=      5-min Rain = 0
KBR1 200318Z 13006KT 01/M04 A3021 RMK A01 T00061044  RH  069%=      5-min Rain = 0
KBR1 200319Z 13006KT 01/M05 A3021 RMK A01 T00051045  RH  069%=      5-min Rain = 0
KBR1 200320Z 13006KT 00/M05 A3021 RMK A01 T00041045  RH  070%=      5-min Rain = 0
KBR1 200321Z 13006KT 00/M05 A3021 RMK A01 T00031046  RH  070%=      5-min Rain = 0
KBR1 200322Z 13006KT 00/M05 A3021 RMK A01 T00011046  RH  071%=      5-min Rain = 0
KBR1 200323Z 13006KT 00/05 A3021 RMK A01 T00000-45  RH  072%=      5-min Rain = 0
KBR1 200324Z 12006KT 00/05 A3021 RMK A01 T00-00-45  RH  072%=      5-min Rain = 0
KBR1 200325Z 12006KT 00/04 A3021 RMK A01 T00-00-44  RH  072%=      5-min Rain = 0
KBR1 200326Z 12006KT 00/04 A3021 RMK A01 T00000-44  RH  072%=      5-min Rain = 0
KBR1 200327Z 12006KT 00/M04 A3021 RMK A01 T00011044  RH  072%=      5-min Rain = 0
KBR1 200328Z 12006KT 00/M04 A3021 RMK A01 T00021044  RH  071%=      5-min Rain = 0
KBR1 200329Z 12006KT 00/M04 A3021 RMK A01 T00021044  RH  071%=      5-min Rain = 0
KBR1 200330Z 11005KT 00/M04 A3021 RMK A01 T00021044  RH  071%=      5-min Rain = 0
KBR1 200331Z 11006KT 00/M05 A3021 RMK A01 T00011045  RH  071%=      5-min Rain = 0
KBR1 200332Z 11006KT 00/M04 A3021 RMK A01 T00021044  RH  071%=      5-min Rain = 0
KBR1 200333Z 11005KT 00/M04 A302 RMK A01 T00011044  RH  071%=      5-min Rain = 0
KBR1 200334Z 11005KT 00/05 A302 RMK A01 T00000-45  RH  072%=      5-min Rain = 0
KBR1 200335Z 11005KT M00/M05 A3021 RMK A01 T10011046  RH  072%=      5-min Rain = 0
KBR1 200336Z 11006KT 00/05 A3021 RMK A01 T00-00-45  RH  072%=      5-min Rain = 0
KBR1 200337Z 11006KT 00/05 A3021 RMK A01 T00000-45  RH  072%=      5-min Rain = 0
KBR1 200338Z 11006KT 00/M04 A3021 RMK A01 T00011044  RH  072%=      5-min Rain = 0
KBR1 200339Z 10006KT 00/M04 A3021 RMK A01 T00011043  RH  072%=      5-min Rain = 0
KBR1 200340Z 10005KT 00/M04 A3021 RMK A01 T00011043  RH  072%=      5-min Rain = 0
KBR1 200341Z 10005KT 00/M04 A3021 RMK A01 T00011043  RH  072%=      5-min Rain = 0
KBR1 200342Z 11005KT M00/M04 A3021 RMK A01 T10011044  RH  073%=      5-min Rain = 0
KBR1 200343Z 11006KT M00/M05 A3021 RMK A01 T10041046  RH  073%=      5-min Rain = 0
KBR1 200344Z 11006KT M01/M05 A3021 RMK A01 T10051045  RH  074%=      5-min Rain = 0
KBR1 200345Z 11006KT M00/M04 A3021 RMK A01 T10041044  RH  074%=      5-min Rain = 0
KBR1 200346Z 11006KT M00/M04 A3021 RMK A01 T10041044  RH  074%=      5-min Rain = 0
KBR1 200347Z 11005KT M00/M04 A3021 RMK A01 T10021042  RH  074%=      5-min Rain = 0
KBR1 200348Z 11006KT 00/04 A3021 RMK A01 T00-00-42  RH  073%=      5-min Rain = 0
KBR1 200349Z 11006KT 00/M04 A3021 RMK A01 T00011042  RH  073%=      5-min Rain = 0
KBR1 200350Z 11006KT 00/M04 A3021 RMK A01 T00011042  RH  073%=      5-min Rain = 0
KBR1 200351Z 11006KT 00/M04 A3021 RMK A01 T00011042  RH  073%=      5-min Rain = 0
KBR1 200352Z 11005KT 00/M04 A3022 RMK A01 T00021042  RH  072%=      5-min Rain = 0
KBR1 200353Z 10005KT 00/M04 A3022 RMK A01 T00021042  RH  072%=      5-min Rain = 0
KBR1 200354Z 10005KT 00/M04 A3022 RMK A01 T00011043  RH  072%=      5-min Rain = 0
KBR1 200355Z 10005KT 00/M04 A3022 RMK A01 T00011043  RH  072%=      5-min Rain = 0
KBR1 200356Z 11005KT 00/M04 A3022 RMK A01 T00021043  RH  072%=      5-min Rain = 0
KBR1 200357Z 11005KT 00/M04 A3022 RMK A01 T00021043  RH  072%=      5-min Rain = 0
KBR1 200358Z 11005KT 00/M04 A3022 RMK A01 T00021043  RH  072%=      5-min Rain = 0
KBR1 200359Z 11004KT 00/M04 A3022 RMK A01 T00021043  RH  072%=      5-min Rain = 0
KBR1 200400Z 12004KT 00/M04 A3022 RMK A01 T00021043  RH  072%=      5-min Rain = 0
KBR1 200401Z 11004KT 00/M04 A3022 RMK A01 T00041042  RH  071%=      5-min Rain = 0
KBR1 200402Z 12004KT 01/M04 A3022 RMK A01 T00051042  RH  071%=      5-min Rain = 0
KBR1 200403Z 13004KT 01/M04 A3022 RMK A01 T00061042  RH  070%=      5-min Rain = 0
KBR1 200404Z 13004KT 01/M04 A3022 RMK A01 T00051043  RH  070%=      5-min Rain = 0
KBR1 200405Z 14005KT 00/M04 A3021 RMK A01 T00031044  RH  071%=      5-min Rain = 0
KBR1 200406Z 14005KT 00/M05 A3021 RMK A01 T00011045  RH  071%=      5-min Rain = 0
KBR1 200407Z 14005KT 00/04 A3021 RMK A01 T00-00-44  RH  072%=      5-min Rain = 0
KBR1 200408Z 14005KT 00/04 A3021 RMK A01 T00-00-43  RH  073%=      5-min Rain = 0
KBR1 200409Z 13005KT 00/M04 A3021 RMK A01 T00011041  RH  074%=      5-min Rain = 0
KBR1 200410Z 14005KT 00/M04 A3021 RMK A01 T00021039  RH  073%=      5-min Rain = 0
KBR1 200411Z 13005KT 00/M04 A3021 RMK A01 T00031039  RH  073%=      5-min Rain = 0
KBR1 200412Z 14005KT 00/M04 A3021 RMK A01 T00041040  RH  072%=      5-min Rain = 0
KBR1 200413Z 13005KT 00/M04 A3021 RMK A01 T00031041  RH  072%=      5-min Rain = 0
KBR1 200414Z 13005KT 00/M04 A3021 RMK A01 T00011042  RH  073%=      5-min Rain = 0
KBR1 200415Z 13005KT 00/M04 A3021 RMK A01 T00011042  RH  073%=      5-min Rain = 0
KBR1 200416Z 13006KT 00/04 A3021 RMK A01 T00000-41  RH  074%=      5-min Rain = 0
KBR1 200417Z 13006KT 00/04 A3021 RMK A01 T00000-41  RH  074%=      5-min Rain = 0
KBR1 200418Z 13005KT 00/04 A3021 RMK A01 T00-00-42  RH  074%=      5-min Rain = 0
KBR1 200419Z 13005KT M00/M04 A3021 RMK A01 T10011042  RH  074%=      5-min Rain = 0
KBR1 200420Z 12005KT 00/04 A3021 RMK A01 T00-00-41  RH  074%=      5-min Rain = 0
KBR1 200421Z 12005KT M00/M04 A3021 RMK A01 T10011041  RH  074%=      5-min Rain = 0
KBR1 200422Z 12005KT M00/M04 A3021 RMK A01 T10011042  RH  074%=      5-min Rain = 0
KBR1 200423Z 11004KT M00/M04 A3021 RMK A01 T10021042  RH  074%=      5-min Rain = 0
KBR1 200424Z 11004KT M00/M04 A3021 RMK A01 T10041043  RH  074%=      5-min Rain = 0
KBR1 200425Z 10005KT M01/M05 A3021 RMK A01 T10061045  RH  075%=      5-min Rain = 0
KBR1 200426Z 09005KT M01/M05 A3021 RMK A01 T10081046  RH  076%=      5-min Rain = 0
KBR1 200427Z 10005KT M01/M05 A3021 RMK A01 T10101046  RH  076%=      5-min Rain = 0
KBR1 200428Z 10005KT M01/M05 A3021 RMK A01 T10111046  RH  077%=      5-min Rain = 0
KBR1 200429Z 10005KT M01/M05 A3021 RMK A01 T10111045  RH  078%=      5-min Rain = 0
KBR1 200430Z 11005KT M01/M04 A3021 RMK A01 T10111044  RH  078%=      5-min Rain = 0
KBR1 200431Z 11006KT M01/M04 A3021 RMK A01 T10091042  RH  078%=      5-min Rain = 0
KBR1 200432Z 11006KT M01/M04 A3021 RMK A01 T10081040  RH  079%=      5-min Rain = 0
KBR1 200433Z 11006KT M01/M04 A3021 RMK A01 T10061039  RH  078%=      5-min Rain = 0
KBR1 200434Z 11005KT M01/M04 A302 RMK A01 T10051038  RH  078%=      5-min Rain = 0
KBR1 200435Z 12005KT M00/M04 A302 RMK A01 T10041038  RH  078%=      5-min Rain = 0
KBR1 200436Z 12005KT M00/M04 A3021 RMK A01 T10021037  RH  077%=      5-min Rain = 0
KBR1 200437Z 12004KT M00/M04 A3021 RMK A01 T10011037  RH  077%=      5-min Rain = 0
KBR1 200438Z 13004KT 00/M04 A3021 RMK A01 T00011037  RH  076%=      5-min Rain = 0
KBR1 200439Z 13003KT 00/M04 A3021 RMK A01 T00011037  RH  075%=      5-min Rain = 0
KBR1 200440Z 13003KT 00/M04 A3021 RMK A01 T00011038  RH  075%=      5-min Rain = 0
KBR1 200441Z 13002KT 00/M04 A3021 RMK A01 T00011040  RH  074%=      5-min Rain = 0
KBR1 200442Z 14003KT M00/M04 A3021 RMK A01 T10011041  RH  074%=      5-min Rain = 0
KBR1 200443Z 13002KT M00/M04 A3021 RMK A01 T10041044  RH  075%=      5-min Rain = 0
KBR1 200444Z 13003KT M01/M04 A3021 RMK A01 T10081044  RH  077%=      5-min Rain = 0
KBR1 200445Z 14004KT M01/M04 A3021 RMK A01 T10091043  RH  078%=      5-min Rain = 0
KBR1 200446Z 13004KT M01/M04 A3021 RMK A01 T10101043  RH  078%=      5-min Rain = 0
KBR1 200447Z 13005KT M01/M04 A302 RMK A01 T10101043  RH  078%=      5-min Rain = 0
KBR1 200448Z 12005KT M01/M04 A302 RMK A01 T10081041  RH  078%=      5-min Rain = 0
KBR1 200449Z 12005KT M01/M04 A302 RMK A01 T10071042  RH  078%=      5-min Rain = 0
KBR1 200450Z 12005KT M01/M04 A302 RMK A01 T10071041  RH  078%=      5-min Rain = 0
KBR1 200451Z 12005KT M01/M04 A302 RMK A01 T10061041  RH  077%=      5-min Rain = 0
KBR1 200452Z 12005KT M01/M04 A302 RMK A01 T10071043  RH  077%=      5-min Rain = 0
KBR1 200453Z 12005KT M01/M04 A302 RMK A01 T10081042  RH  078%=      5-min Rain = 0
KBR1 200454Z 12005KT M01/M04 A302 RMK A01 T10061039  RH  079%=      5-min Rain = 0
KBR1 200455Z 12004KT M00/M04 A302 RMK A01 T10031037  RH  078%=      5-min Rain = 0
KBR1 200456Z 12004KT M00/M04 A302 RMK A01 T10011036  RH  077%=      5-min Rain = 0
KBR1 200457Z 12003KT 00/M04 A302 RMK A01 T00021035  RH  076%=      5-min Rain = 0
KBR1 200458Z 12004KT 01/M03 A302 RMK A01 T00051034  RH  075%=      5-min Rain = 0
KBR1 200459Z 12003KT 01/M03 A302 RMK A01 T00071034  RH  074%=      5-min Rain = 0
KBR1 200500Z 11003KT 00/M04 A302 RMK A01 T00041040  RH  072%=      5-min Rain = 0
KBR1 200501Z 10003KT M00/M04 A302 RMK A01 T10011042  RH  074%=      5-min Rain = 0
KBR1 200502Z 09003KT M00/M04 A3021 RMK A01 T10031041  RH  075%=      5-min Rain = 0
KBR1 200503Z 09003KT M00/M04 A3021 RMK A01 T10041041  RH  076%=      5-min Rain = 0
KBR1 200504Z 09004KT M01/M04 A3021 RMK A01 T10061042  RH  077%=      5-min Rain = 0
KBR1 200505Z 09004KT M01/M04 A3021 RMK A01 T10081042  RH  078%=      5-min Rain = 0
KBR1 200506Z 08004KT M01/M04 A3021 RMK A01 T10091042  RH  079%=      5-min Rain = 0
KBR1 200507Z 09004KT M01/M04 A3021 RMK A01 T10111043  RH  079%=      5-min Rain = 0
KBR1 200508Z 10004KT M01/M04 A3021 RMK A01 T10121042  RH  080%=      5-min Rain = 0
KBR1 200509Z 09004KT M01/M04 A3021 RMK A01 T10121042  RH  080%=      5-min Rain = 0
KBR1 200510Z 09004KT M01/M04 A3021 RMK A01 T10121041  RH  080%=      5-min Rain = 0
KBR1 200511Z 09004KT M01/M04 A3021 RMK A01 T10121041  RH  080%=      5-min Rain = 0
KBR1 200512Z 09004KT M01/M04 A3021 RMK A01 T10121041  RH  080%=      5-min Rain = 0
KBR1 200513Z 09004KT M01/M04 A3021 RMK A01 T10121042  RH  081%=      5-min Rain = 0
KBR1 200514Z 09004KT M01/M04 A3021 RMK A01 T10131041  RH  081%=      5-min Rain = 0
KBR1 200515Z 08004KT M01/M04 A3021 RMK A01 T10121040  RH  081%=      5-min Rain = 0
KBR1 200516Z 07004KT M01/M04 A3021 RMK A01 T10121041  RH  081%=      5-min Rain = 0
KBR1 200517Z 07004KT M01/M04 A3021 RMK A01 T10131042  RH  081%=      5-min Rain = 0
KBR1 200518Z 07004KT M02/M04 A3021 RMK A01 T10151043  RH  081%=      5-min Rain = 0
KBR1 200519Z 07004KT M02/M04 A3021 RMK A01 T10161042  RH  082%=      5-min Rain = 0
KBR1 200520Z 07004KT M02/M04 A3021 RMK A01 T10161042  RH  083%=      5-min Rain = 0
KBR1 200521Z 07004KT M02/M04 A3021 RMK A01 T10161042  RH  083%=      5-min Rain = 0
KBR1 200522Z 07004KT M02/M04 A3021 RMK A01 T10151041  RH  083%=      5-min Rain = 0
KBR1 200523Z 07004KT M02/M04 A3021 RMK A01 T10151041  RH  082%=      5-min Rain = 0
KBR1 200524Z 08004KT M02/M04 A3021 RMK A01 T10161042  RH  082%=      5-min Rain = 0
KBR1 200525Z 08004KT M02/M04 A3021 RMK A01 T10151040  RH  083%=      5-min Rain = 0
KBR1 200526Z 09004KT M01/M04 A3021 RMK A01 T10111036  RH  083%=      5-min Rain = 0
KBR1 200527Z 09005KT M01/M04 A3021 RMK A01 T10081036  RH  082%=      5-min Rain = 0
KBR1 200528Z 09005KT M01/M04 A3021 RMK A01 T10091039  RH  080%=      5-min Rain = 0
KBR1 200529Z 08005KT M01/M04 A3021 RMK A01 T10111041  RH  080%=      5-min Rain = 0
KBR1 200530Z 08005KT M01/M04 A3021 RMK A01 T10121041  RH  081%=      5-min Rain = 0
KBR1 200531Z 09005KT M01/M04 A302 RMK A01 T10131041  RH  081%=      5-min Rain = 0
KBR1 200532Z 08005KT M01/M04 A302 RMK A01 T10131040  RH  082%=      5-min Rain = 0
KBR1 200533Z 08006KT M01/M04 A302 RMK A01 T10121039  RH  082%=      5-min Rain = 0
KBR1 200534Z 08005KT M01/M04 A302 RMK A01 T10121039  RH  082%=      5-min Rain = 0
KBR1 200535Z 08005KT M01/M04 A302 RMK A01 T10121040  RH  082%=      5-min Rain = 0
KBR1 200536Z 08005KT M01/M04 A3021 RMK A01 T10121040  RH  082%=      5-min Rain = 0
KBR1 200537Z 07005KT M01/M04 A3021 RMK A01 T10121039  RH  082%=      5-min Rain = 0
KBR1 200538Z 07005KT M01/M04 A3021 RMK A01 T10121039  RH  082%=      5-min Rain = 0
KBR1 200539Z 07005KT M01/M04 A3021 RMK A01 T10121039  RH  082%=      5-min Rain = 0
KBR1 200540Z 06005KT M01/M04 A3021 RMK A01 T10131040  RH  082%=      5-min Rain = 0
KBR1 200541Z 06005KT M01/M04 A3021 RMK A01 T10131039  RH  083%=      5-min Rain = 0
KBR1 200542Z 07005KT M01/M04 A3021 RMK A01 T10131039  RH  083%=      5-min Rain = 0
KBR1 200543Z 07005KT M01/M04 A3021 RMK A01 T10131040  RH  082%=      5-min Rain = 0
KBR1 200544Z 07005KT M01/M04 A3021 RMK A01 T10131040  RH  082%=      5-min Rain = 0
KBR1 200545Z 08005KT M01/M04 A3021 RMK A01 T10131039  RH  082%=      5-min Rain = 0
KBR1 200546Z 07005KT M01/M04 A3021 RMK A01 T10121039  RH  082%=      5-min Rain = 0
KBR1 200547Z 08005KT M01/M04 A3021 RMK A01 T10131040  RH  082%=      5-min Rain = 0
KBR1 200548Z 08005KT M01/M04 A3021 RMK A01 T10121040  RH  082%=      5-min Rain = 0
KBR1 200549Z 08005KT M01/M04 A302 RMK A01 T10121040  RH  081%=      5-min Rain = 0
KBR1 200550Z 08006KT M01/M04 A302 RMK A01 T10121040  RH  081%=      5-min Rain = 0
KBR1 200551Z 09005KT M01/M04 A302 RMK A01 T10121040  RH  081%=      5-min Rain = 0
KBR1 200552Z 09006KT M01/M04 A302 RMK A01 T10131041  RH  081%=      5-min Rain = 0
KBR1 200553Z 08006KT M01/M04 A302 RMK A01 T10141041  RH  082%=      5-min Rain = 0
KBR1 200554Z 08006KT M02/M04 A3021 RMK A01 T10151041  RH  082%=      5-min Rain = 0
KBR1 200555Z 07006KT M02/M04 A3021 RMK A01 T10151041  RH  082%=      5-min Rain = 0
KBR1 200556Z 07006KT M02/M04 A3021 RMK A01 T10161041  RH  083%=      5-min Rain = 0
KBR1 200557Z 07006KT M02/M04 A3021 RMK A01 T10151041  RH  083%=      5-min Rain = 0
KBR1 200558Z 06005KT M02/M04 A3021 RMK A01 T10161041  RH  083%=      5-min Rain = 0
KBR1 200559Z 06005KT M02/M04 A3021 RMK A01 T10161040  RH  083%=      5-min Rain = 0

Page generated in 0.1662 seconds.